Observation data for Sierra Blanca on 02/22/2019      Previous  Date  Next       Current Mesonet Observations  Soil Data  Daily Summary Page  Observations in Plain Language
KSB1 220600Z 32008KT 10/M15 A2984 RMK A01 T01031147  RH  016%=      5-min Rain = 0
KSB1 220601Z 31007KT 10/M15 A2984 RMK A01 T01031147  RH  016%=      5-min Rain = 0
KSB1 220602Z 31008KT 10/M15 A2984 RMK A01 T01031147  RH  016%=      5-min Rain = 0
KSB1 220603Z 31008KT 10/M15 A2984 RMK A01 T01021147  RH  016%=      5-min Rain = 0
KSB1 220604Z 31008KT 10/M15 A2984 RMK A01 T01021147  RH  016%=      5-min Rain = 0
KSB1 220605Z 31008KT 10/M15 A2984 RMK A01 T01011148  RH  016%=      5-min Rain = 0
KSB1 220606Z 31008KT 10/M15 A2984 RMK A01 T01011148  RH  016%=      5-min Rain = 0
KSB1 220607Z 31009KT 10/M15 A2984 RMK A01 T01011148  RH  016%=      5-min Rain = 0
KSB1 220608Z 31009KT 10/M15 A2984 RMK A01 T01001148  RH  016%=      5-min Rain = 0
KSB1 220609Z 31009KT 10/M15 A2984 RMK A01 T01001147  RH  016%=      5-min Rain = 0
KSB1 220610Z 31008KT 10/M15 A2984 RMK A01 T01011147  RH  016%=      5-min Rain = 0
KSB1 220611Z 31008KT 10/M15 A2984 RMK A01 T01011147  RH  016%=      5-min Rain = 0
KSB1 220612Z 31008KT 10/M15 A2984 RMK A01 T01001147  RH  016%=      5-min Rain = 0
KSB1 220613Z 32009KT 10/M15 A2984 RMK A01 T01001148  RH  016%=      5-min Rain = 0
KSB1 220614Z 32009KT 10/M15 A2984 RMK A01 T01001148  RH  016%=      5-min Rain = 0
KSB1 220615Z 32009KT 10/M15 A2984 RMK A01 T00991148  RH  016%=      5-min Rain = 0
KSB1 220616Z 31009KT 10/M15 A2984 RMK A01 T00991148  RH  016%=      5-min Rain = 0
KSB1 220617Z 31008KT 10/M15 A2984 RMK A01 T00991148  RH  016%=      5-min Rain = 0
KSB1 220618Z 31008KT 10/M15 A2984 RMK A01 T00991147  RH  016%=      5-min Rain = 0
KSB1 220619Z 32009KT 10/M15 A2984 RMK A01 T00981148  RH  016%=      5-min Rain = 0
KSB1 220620Z 32008KT 10/M15 A2984 RMK A01 T00981147  RH  016%=      5-min Rain = 0
KSB1 220621Z 32008KT 10/M15 A2984 RMK A01 T00991147  RH  016%=      5-min Rain = 0
KSB1 220622Z 31008KT 10/M15 A2984 RMK A01 T00981147  RH  016%=      5-min Rain = 0
KSB1 220623Z 32008KT 10/M15 A2984 RMK A01 T00981147  RH  016%=      5-min Rain = 0
KSB1 220624Z 32007KT 10/M15 A2984 RMK A01 T00981147  RH  016%=      5-min Rain = 0
KSB1 220625Z 33006KT 10/M15 A2984 RMK A01 T00971147  RH  016%=      5-min Rain = 0
KSB1 220626Z 32006KT 10/M15 A2984 RMK A01 T00951147  RH  017%=      5-min Rain = 0
KSB1 220627Z 33006KT 09/M15 A2984 RMK A01 T00931147  RH  017%=      5-min Rain = 0
KSB1 220628Z 33006KT 09/M15 A2984 RMK A01 T00921147  RH  017%=      5-min Rain = 0
KSB1 220629Z 32007KT 09/M15 A2984 RMK A01 T00911147  RH  017%=      5-min Rain = 0
KSB1 220630Z 32006KT 09/M15 A2984 RMK A01 T00911147  RH  017%=      5-min Rain = 0
KSB1 220631Z 32006KT 09/M15 A2984 RMK A01 T00911147  RH  017%=      5-min Rain = 0
KSB1 220632Z 34005KT 09/M15 A2984 RMK A01 T00911146  RH  017%=      5-min Rain = 0
KSB1 220633Z 34004KT 09/M15 A2984 RMK A01 T00901145  RH  017%=      5-min Rain = 0
KSB1 220634Z 33005KT 09/M15 A2984 RMK A01 T00871145  RH  018%=      5-min Rain = 0
KSB1 220635Z 33004KT 09/M15 A2984 RMK A01 T00851145  RH  018%=      5-min Rain = 0
KSB1 220636Z 33004KT 08/M15 A2984 RMK A01 T00831146  RH  018%=      5-min Rain = 0
KSB1 220637Z 32005KT 08/M15 A2984 RMK A01 T00821145  RH  018%=      5-min Rain = 0
KSB1 220638Z 31006KT 08/M15 A2984 RMK A01 T00811145  RH  018%=      5-min Rain = 0
KSB1 220639Z 31006KT 08/M15 A2984 RMK A01 T00811146  RH  018%=      5-min Rain = 0
KSB1 220640Z 31006KT 08/M15 A2984 RMK A01 T00791148  RH  018%=      5-min Rain = 0
KSB1 220641Z 32005KT 08/M15 A2983 RMK A01 T00751148  RH  019%=      5-min Rain = 0
KSB1 220642Z 32004KT 08/M15 A2983 RMK A01 T00771145  RH  019%=      5-min Rain = 0
KSB1 220643Z 31005KT 08/M15 A2984 RMK A01 T00781145  RH  019%=      5-min Rain = 0
KSB1 220644Z 32004KT 08/M15 A2984 RMK A01 T00771146  RH  019%=      5-min Rain = 0
KSB1 220645Z 33004KT 08/M15 A2984 RMK A01 T00761146  RH  019%=      5-min Rain = 0
KSB1 220646Z 33005KT 08/M15 A2984 RMK A01 T00761145  RH  019%=      5-min Rain = 0
KSB1 220647Z 34004KT 07/M15 A2984 RMK A01 T00731146  RH  019%=      5-min Rain = 0
KSB1 220648Z 34004KT 07/M15 A2984 RMK A01 T00691147  RH  020%=      5-min Rain = 0
KSB1 220649Z 33005KT 07/M15 A2984 RMK A01 T00651147  RH  020%=      5-min Rain = 0
KSB1 220650Z 34004KT 06/M15 A2984 RMK A01 T00621147  RH  021%=      5-min Rain = 0
KSB1 220651Z 33005KT 06/M15 A2984 RMK A01 T00601147  RH  021%=      5-min Rain = 0
KSB1 220652Z 32005KT 06/M15 A2984 RMK A01 T00591146  RH  021%=      5-min Rain = 0
KSB1 220653Z 32005KT 06/M15 A2984 RMK A01 T00601145  RH  021%=      5-min Rain = 0
KSB1 220654Z 32004KT 06/M15 A2984 RMK A01 T00601145  RH  021%=      5-min Rain = 0
KSB1 220655Z 33004KT 06/M15 A2984 RMK A01 T00601145  RH  021%=      5-min Rain = 0
KSB1 220656Z 34004KT 06/M15 A2984 RMK A01 T00601145  RH  021%=      5-min Rain = 0
KSB1 220657Z 34006KT 06/M14 A2984 RMK A01 T00611144  RH  021%=      5-min Rain = 0
KSB1 220658Z 34006KT 06/M14 A2984 RMK A01 T00641144  RH  021%=      5-min Rain = 0
KSB1 220659Z 34006KT 07/M15 A2984 RMK A01 T00661145  RH  020%=      5-min Rain = 0
KSB1 220700Z 34007KT 07/M15 A2984 RMK A01 T00671145  RH  020%=      5-min Rain = 0
KSB1 220701Z 34007KT 07/M15 A2984 RMK A01 T00681145  RH  020%=      5-min Rain = 0
KSB1 220702Z 35007KT 07/M15 A2984 RMK A01 T00681145  RH  020%=      5-min Rain = 0
KSB1 220703Z 34006KT 07/M15 A2984 RMK A01 T00671145  RH  020%=      5-min Rain = 0
KSB1 220704Z 34006KT 07/M15 A2984 RMK A01 T00661145  RH  020%=      5-min Rain = 0
KSB1 220705Z 35006KT 07/M15 A2984 RMK A01 T00651145  RH  021%=      5-min Rain = 0
KSB1 220706Z 35006KT 06/M15 A2984 RMK A01 T00641145  RH  021%=      5-min Rain = 0
KSB1 220707Z 35006KT 06/M15 A2984 RMK A01 T00631145  RH  021%=      5-min Rain = 0
KSB1 220708Z 35005KT 06/M15 A2984 RMK A01 T00631146  RH  021%=      5-min Rain = 0
KSB1 220709Z 35005KT 06/M15 A2984 RMK A01 T00641145  RH  021%=      5-min Rain = 0
KSB1 220710Z 35005KT 07/M15 A2984 RMK A01 T00651145  RH  021%=      5-min Rain = 0
KSB1 220711Z 35006KT 07/M15 A2984 RMK A01 T00651145  RH  020%=      5-min Rain = 0
KSB1 220712Z 35006KT 07/M15 A2984 RMK A01 T00661145  RH  020%=      5-min Rain = 0
KSB1 220713Z 35005KT 07/M15 A2984 RMK A01 T00661146  RH  020%=      5-min Rain = 0
KSB1 220714Z 35005KT 07/M15 A2984 RMK A01 T00661146  RH  020%=      5-min Rain = 0
KSB1 220715Z 34005KT 07/M15 A2984 RMK A01 T00661145  RH  020%=      5-min Rain = 0
KSB1 220716Z 34005KT 07/M15 A2984 RMK A01 T00671145  RH  020%=      5-min Rain = 0
KSB1 220717Z 32003KT 07/M15 A2984 RMK A01 T00681145  RH  020%=      5-min Rain = 0
KSB1 220718Z 31003KT 07/M15 A2984 RMK A01 T00671146  RH  020%=      5-min Rain = 0
KSB1 220719Z 30002KT 06/M15 A2984 RMK A01 T00621149  RH  020%=      5-min Rain = 0
KSB1 220720Z 31002KT 06/M15 A2984 RMK A01 T00571150  RH  021%=      5-min Rain = 0
KSB1 220721Z 32002KT 06/M15 A2984 RMK A01 T00561149  RH  021%=      5-min Rain = 0
KSB1 220722Z 29001KT 06/M15 A2984 RMK A01 T00551148  RH  022%=      5-min Rain = 0
KSB1 220723Z 28000KT 06/M15 A2984 RMK A01 T00551147  RH  022%=      5-min Rain = 0
KSB1 220724Z 27000KT 05/M15 A2984 RMK A01 T00541148  RH  022%=      5-min Rain = 0
KSB1 220725Z 23001KT 05/M15 A2984 RMK A01 T00521148  RH  022%=      5-min Rain = 0
KSB1 220726Z 24001KT 05/M15 A2984 RMK A01 T00531148  RH  022%=      5-min Rain = 0
KSB1 220727Z 25001KT 05/M15 A2984 RMK A01 T00531148  RH  022%=      5-min Rain = 0
KSB1 220728Z 22002KT 05/M15 A2984 RMK A01 T00531148  RH  022%=      5-min Rain = 0
KSB1 220729Z 22003KT 05/M15 A2984 RMK A01 T00531149  RH  022%=      5-min Rain = 0
KSB1 220730Z 22002KT 06/M15 A2984 RMK A01 T00551148  RH  022%=      5-min Rain = 0
KSB1 220731Z 23000KT 06/M15 A2984 RMK A01 T00571148  RH  021%=      5-min Rain = 0
KSB1 220732Z 21001KT 06/M15 A2984 RMK A01 T00591147  RH  021%=      5-min Rain = 0
KSB1 220733Z 19000KT 06/M15 A2984 RMK A01 T00611147  RH  021%=      5-min Rain = 0
KSB1 220734Z 00000KT 06/M15 A2984 RMK A01 T00641146  RH  020%=      5-min Rain = 0
KSB1 220735Z 23001KT 07/M15 A2984 RMK A01 T00671146  RH  020%=      5-min Rain = 0
KSB1 220736Z 23002KT 07/M15 A2984 RMK A01 T00701146  RH  020%=      5-min Rain = 0
KSB1 220737Z 24002KT 07/M15 A2984 RMK A01 T00731146  RH  019%=      5-min Rain = 0
KSB1 220738Z 25003KT 07/M15 A2984 RMK A01 T00741146  RH  019%=      5-min Rain = 0
KSB1 220739Z 21002KT 07/M15 A2984 RMK A01 T00741147  RH  019%=      5-min Rain = 0
KSB1 220740Z 28004KT 07/M15 A2984 RMK A01 T00731148  RH  019%=      5-min Rain = 0
KSB1 220741Z 27003KT 07/M15 A2984 RMK A01 T00711148  RH  019%=      5-min Rain = 0
KSB1 220742Z 23002KT 07/M15 A2984 RMK A01 T00711147  RH  019%=      5-min Rain = 0
KSB1 220743Z 26002KT 07/M15 A2984 RMK A01 T00721147  RH  019%=      5-min Rain = 0
KSB1 220744Z 28001KT 07/M15 A2984 RMK A01 T00721147  RH  019%=      5-min Rain = 0
KSB1 220745Z 26002KT 07/M15 A2984 RMK A01 T00721147  RH  019%=      5-min Rain = 0
KSB1 220746Z 28001KT 07/M15 A2984 RMK A01 T00721147  RH  019%=      5-min Rain = 0
KSB1 220747Z 28002KT 07/M15 A2984 RMK A01 T00711148  RH  019%=      5-min Rain = 0
KSB1 220748Z 31002KT 07/M15 A2984 RMK A01 T00711147  RH  019%=      5-min Rain = 0
KSB1 220749Z 33002KT 07/M15 A2984 RMK A01 T00721146  RH  019%=      5-min Rain = 0
KSB1 220750Z 33002KT 08/M15 A2984 RMK A01 T00761145  RH  019%=      5-min Rain = 0
KSB1 220751Z 33003KT 08/M15 A2984 RMK A01 T00801145  RH  019%=      5-min Rain = 0
KSB1 220752Z 34003KT 08/M15 A2984 RMK A01 T00821145  RH  018%=      5-min Rain = 0
KSB1 220753Z 33003KT 08/M15 A2984 RMK A01 T00831147  RH  018%=      5-min Rain = 0
KSB1 220754Z 34003KT 08/M15 A2985 RMK A01 T00841147  RH  018%=      5-min Rain = 0
KSB1 220755Z 33003KT 09/M15 A2985 RMK A01 T00851148  RH  018%=      5-min Rain = 0
KSB1 220756Z 34002KT 09/M15 A2985 RMK A01 T00861146  RH  018%=      5-min Rain = 0
KSB1 220757Z 33003KT 09/M15 A2985 RMK A01 T00871146  RH  018%=      5-min Rain = 0
KSB1 220758Z 32002KT 09/M15 A2985 RMK A01 T00871146  RH  018%=      5-min Rain = 0
KSB1 220759Z 33002KT 09/M15 A2985 RMK A01 T00861146  RH  018%=      5-min Rain = 0
KSB1 220800Z 30002KT 09/M15 A2985 RMK A01 T00851147  RH  018%=      5-min Rain = 0
KSB1 220801Z 29001KT 08/M15 A2985 RMK A01 T00821149  RH  018%=      5-min Rain = 0
KSB1 220802Z 30002KT 08/M15 A2985 RMK A01 T00811149  RH  018%=      5-min Rain = 0
KSB1 220803Z 30003KT 08/M15 A2985 RMK A01 T00801148  RH  018%=      5-min Rain = 0
KSB1 220804Z 30004KT 08/M15 A2985 RMK A01 T00791148  RH  018%=      5-min Rain = 0
KSB1 220805Z 30005KT 08/M15 A2985 RMK A01 T00791148  RH  018%=      5-min Rain = 0
KSB1 220806Z 29005KT 08/M15 A2985 RMK A01 T00791148  RH  018%=      5-min Rain = 0
KSB1 220807Z 30005KT 08/M15 A2985 RMK A01 T00801148  RH  018%=      5-min Rain = 0
KSB1 220808Z 29005KT 08/M15 A2985 RMK A01 T00801147  RH  018%=      5-min Rain = 0
KSB1 220809Z 29004KT 08/M15 A2985 RMK A01 T00811147  RH  018%=      5-min Rain = 0
KSB1 220810Z 30005KT 08/M15 A2985 RMK A01 T00801148  RH  018%=      5-min Rain = 0
KSB1 220811Z 29006KT 08/M15 A2985 RMK A01 T00811148  RH  018%=      5-min Rain = 0
KSB1 220812Z 30006KT 08/M15 A2985 RMK A01 T00811147  RH  018%=      5-min Rain = 0
KSB1 220813Z 30007KT 08/M15 A2985 RMK A01 T00831147  RH  018%=      5-min Rain = 0
KSB1 220814Z 30007KT 08/M15 A2985 RMK A01 T00841147  RH  018%=      5-min Rain = 0
KSB1 220815Z 30008KT 09/M15 A2985 RMK A01 T00861147  RH  018%=      5-min Rain = 0
KSB1 220816Z 30008KT 09/M15 A2985 RMK A01 T00881147  RH  017%=      5-min Rain = 0
KSB1 220817Z 30007KT 09/M15 A2985 RMK A01 T00891147  RH  017%=      5-min Rain = 0
KSB1 220818Z 30007KT 09/M15 A2985 RMK A01 T00891146  RH  017%=      5-min Rain = 0
KSB1 220819Z 30007KT 09/M15 A2985 RMK A01 T00901146  RH  017%=      5-min Rain = 0
KSB1 220820Z 30007KT 09/M15 A2985 RMK A01 T00911146  RH  017%=      5-min Rain = 0
KSB1 220821Z 30007KT 09/M15 A2985 RMK A01 T00911146  RH  017%=      5-min Rain = 0
KSB1 220822Z 30008KT 09/M15 A2985 RMK A01 T00911146  RH  017%=      5-min Rain = 0
KSB1 220823Z 31007KT 09/M15 A2985 RMK A01 T00901147  RH  017%=      5-min Rain = 0
KSB1 220824Z 30007KT 09/M15 A2985 RMK A01 T00901146  RH  017%=      5-min Rain = 0
KSB1 220825Z 30007KT 09/M15 A2985 RMK A01 T00891146  RH  017%=      5-min Rain = 0
KSB1 220826Z 30007KT 09/M15 A2985 RMK A01 T00891146  RH  017%=      5-min Rain = 0
KSB1 220827Z 30007KT 09/M15 A2985 RMK A01 T00891146  RH  017%=      5-min Rain = 0
KSB1 220828Z 31008KT 09/M15 A2985 RMK A01 T00891146  RH  017%=      5-min Rain = 0
KSB1 220829Z 30007KT 09/M15 A2985 RMK A01 T00891146  RH  017%=      5-min Rain = 0
KSB1 220830Z 31007KT 09/M15 A2985 RMK A01 T00891146  RH  017%=      5-min Rain = 0
KSB1 220831Z 30007KT 09/M15 A2985 RMK A01 T00891146  RH  017%=      5-min Rain = 0
KSB1 220832Z 30006KT 09/M15 A2985 RMK A01 T00891146  RH  017%=      5-min Rain = 0
KSB1 220833Z 30005KT 09/M15 A2985 RMK A01 T00881146  RH  017%=      5-min Rain = 0
KSB1 220834Z 33002KT 08/M16 A2985 RMK A01 T00771156  RH  017%=      5-min Rain = 0
KSB1 220835Z 07002KT 06/M16 A2985 RMK A01 T00581164  RH  019%=      5-min Rain = 0
KSB1 220836Z 07003KT 04/M16 A2985 RMK A01 T00441163  RH  020%=      5-min Rain = 0
KSB1 220837Z 05002KT 04/M16 A2985 RMK A01 T00351161  RH  022%=      5-min Rain = 0
KSB1 220838Z 04001KT 03/M16 A2985 RMK A01 T00311159  RH  023%=      5-min Rain = 0
KSB1 220839Z 06003KT 03/M16 A2986 RMK A01 T00271158  RH  024%=      5-min Rain = 0
KSB1 220840Z 06004KT 02/M16 A2986 RMK A01 T00231158  RH  025%=      5-min Rain = 0
KSB1 220841Z 06005KT 02/M16 A2986 RMK A01 T00191157  RH  026%=      5-min Rain = 0
KSB1 220842Z 05005KT 02/M16 A2986 RMK A01 T00181156  RH  026%=      5-min Rain = 0
KSB1 220843Z 04005KT 02/M15 A2986 RMK A01 T00181154  RH  027%=      5-min Rain = 0
KSB1 220844Z 05005KT 02/M15 A2986 RMK A01 T00231150  RH  027%=      5-min Rain = 0
KSB1 220845Z 05005KT 03/M15 A2986 RMK A01 T00281149  RH  026%=      5-min Rain = 0
KSB1 220846Z 05004KT 03/M15 A2986 RMK A01 T00311149  RH  025%=      5-min Rain = 0
KSB1 220847Z 06004KT 03/M15 A2986 RMK A01 T00331150  RH  025%=      5-min Rain = 0
KSB1 220848Z 05003KT 03/M15 A2986 RMK A01 T00341150  RH  025%=      5-min Rain = 0
KSB1 220849Z 06003KT 04/M15 A2986 RMK A01 T00351150  RH  024%=      5-min Rain = 0
KSB1 220850Z 06004KT 04/M15 A2986 RMK A01 T00361149  RH  024%=      5-min Rain = 0
KSB1 220851Z 05004KT 04/M15 A2986 RMK A01 T00391149  RH  024%=      5-min Rain = 0
KSB1 220852Z 04004KT 04/M15 A2986 RMK A01 T00421148  RH  024%=      5-min Rain = 0
KSB1 220853Z 04003KT 04/M15 A2986 RMK A01 T00431148  RH  023%=      5-min Rain = 0
KSB1 220854Z 03003KT 05/M15 A2986 RMK A01 T00451148  RH  023%=      5-min Rain = 0
KSB1 220855Z 03003KT 05/M15 A2986 RMK A01 T00461148  RH  023%=      5-min Rain = 0
KSB1 220856Z 03004KT 05/M15 A2986 RMK A01 T00471148  RH  023%=      5-min Rain = 0
KSB1 220857Z 02004KT 05/M15 A2986 RMK A01 T00491148  RH  023%=      5-min Rain = 0
KSB1 220858Z 02003KT 05/M15 A2986 RMK A01 T00501148  RH  022%=      5-min Rain = 0
KSB1 220859Z 03004KT 05/M15 A2986 RMK A01 T00511148  RH  022%=      5-min Rain = 0
KSB1 220900Z 02003KT 05/M15 A2986 RMK A01 T00511148  RH  022%=      5-min Rain = 0
KSB1 220901Z 03003KT 05/M15 A2986 RMK A01 T00511148  RH  022%=      5-min Rain = 0
KSB1 220902Z 03003KT 05/M15 A2986 RMK A01 T00501148  RH  022%=      5-min Rain = 0
KSB1 220903Z 03003KT 05/M15 A2986 RMK A01 T00501148  RH  022%=      5-min Rain = 0
KSB1 220904Z 02003KT 05/M15 A2986 RMK A01 T00491148  RH  022%=      5-min Rain = 0
KSB1 220905Z 03003KT 05/M15 A2986 RMK A01 T00491148  RH  023%=      5-min Rain = 0
KSB1 220906Z 03003KT 05/M15 A2986 RMK A01 T00481148  RH  023%=      5-min Rain = 0
KSB1 220907Z 03003KT 05/M15 A2986 RMK A01 T00471148  RH  023%=      5-min Rain = 0
KSB1 220908Z 03004KT 05/M15 A2986 RMK A01 T00471149  RH  023%=      5-min Rain = 0
KSB1 220909Z 03005KT 05/M15 A2986 RMK A01 T00471149  RH  023%=      5-min Rain = 0
KSB1 220910Z 02005KT 05/M15 A2986 RMK A01 T00461149  RH  023%=      5-min Rain = 0
KSB1 220911Z 02005KT 05/M15 A2986 RMK A01 T00451149  RH  023%=      5-min Rain = 0
KSB1 220912Z 02005KT 05/M15 A2986 RMK A01 T00451148  RH  023%=      5-min Rain = 0
KSB1 220913Z 01004KT 05/M15 A2986 RMK A01 T00461147  RH  023%=      5-min Rain = 0
KSB1 220914Z 01005KT 05/M15 A2986 RMK A01 T00481147  RH  023%=      5-min Rain = 0
KSB1 220915Z 01005KT 05/M15 A2986 RMK A01 T00491147  RH  023%=      5-min Rain = 0
KSB1 220916Z 01005KT 05/M15 A2986 RMK A01 T00491147  RH  023%=      5-min Rain = 0
KSB1 220917Z 00005KT 05/M15 A2986 RMK A01 T00491147  RH  023%=      5-min Rain = 0
KSB1 220918Z 00005KT 05/M15 A2986 RMK A01 T00481147  RH  023%=      5-min Rain = 0
KSB1 220919Z 00005KT 05/M15 A2986 RMK A01 T00481147  RH  023%=      5-min Rain = 0
KSB1 220920Z 00005KT 05/M15 A2986 RMK A01 T00481147  RH  023%=      5-min Rain = 0
KSB1 220921Z 00005KT 05/M15 A2986 RMK A01 T00481147  RH  023%=      5-min Rain = 0
KSB1 220922Z 01005KT 05/M15 A2986 RMK A01 T00481147  RH  023%=      5-min Rain = 0
KSB1 220923Z 01005KT 05/M15 A2986 RMK A01 T00491147  RH  023%=      5-min Rain = 0
KSB1 220924Z 02005KT 05/M15 A2986 RMK A01 T00501146  RH  023%=      5-min Rain = 0
KSB1 220925Z 01005KT 05/M15 A2986 RMK A01 T00501147  RH  023%=      5-min Rain = 0
KSB1 220926Z 01005KT 05/M15 A2986 RMK A01 T00511146  RH  022%=      5-min Rain = 0
KSB1 220927Z 01005KT 05/M15 A2986 RMK A01 T00521147  RH  022%=      5-min Rain = 0
KSB1 220928Z 01005KT 05/M15 A2986 RMK A01 T00521147  RH  022%=      5-min Rain = 0
KSB1 220929Z 01005KT 05/M15 A2986 RMK A01 T00531146  RH  022%=      5-min Rain = 0
KSB1 220930Z 02005KT 05/M15 A2986 RMK A01 T00531146  RH  022%=      5-min Rain = 0
KSB1 220931Z 02005KT 05/M15 A2986 RMK A01 T00521147  RH  022%=      5-min Rain = 0
KSB1 220932Z 02005KT 05/M15 A2986 RMK A01 T00531147  RH  022%=      5-min Rain = 0
KSB1 220933Z 01005KT 05/M15 A2986 RMK A01 T00531146  RH  022%=      5-min Rain = 0
KSB1 220934Z 01005KT 05/M15 A2986 RMK A01 T00541146  RH  022%=      5-min Rain = 0
KSB1 220935Z 01004KT 06/M15 A2986 RMK A01 T00561145  RH  022%=      5-min Rain = 0
KSB1 220936Z 02004KT 06/M15 A2986 RMK A01 T00571145  RH  022%=      5-min Rain = 0
KSB1 220937Z 02004KT 06/M15 A2986 RMK A01 T00581145  RH  022%=      5-min Rain = 0
KSB1 220938Z 01003KT 06/M15 A2986 RMK A01 T00591146  RH  021%=      5-min Rain = 0
KSB1 220939Z 00003KT 06/M15 A2986 RMK A01 T00591146  RH  021%=      5-min Rain = 0
KSB1 220940Z 01003KT 06/M15 A2986 RMK A01 T00591145  RH  021%=      5-min Rain = 0
KSB1 220941Z 01003KT 06/M15 A2986 RMK A01 T00601145  RH  021%=      5-min Rain = 0
KSB1 220942Z 01003KT 06/M15 A2986 RMK A01 T00601146  RH  021%=      5-min Rain = 0
KSB1 220943Z 01003KT 06/M15 A2986 RMK A01 T00601146  RH  021%=      5-min Rain = 0
KSB1 220944Z 01004KT 06/M15 A2986 RMK A01 T00601145  RH  021%=      5-min Rain = 0
KSB1 220945Z 00004KT 06/M15 A2986 RMK A01 T00611145  RH  021%=      5-min Rain = 0
KSB1 220946Z 01004KT 06/M15 A2986 RMK A01 T00611145  RH  021%=      5-min Rain = 0
KSB1 220947Z 01004KT 06/M15 A2986 RMK A01 T00621145  RH  021%=      5-min Rain = 0
KSB1 220948Z 02003KT 06/M15 A2986 RMK A01 T00631145  RH  021%=      5-min Rain = 0
KSB1 220949Z 03003KT 06/M15 A2986 RMK A01 T00641145  RH  021%=      5-min Rain = 0
KSB1 220950Z 03003KT 06/M15 A2986 RMK A01 T00641145  RH  021%=      5-min Rain = 0
KSB1 220951Z 02003KT 06/M15 A2986 RMK A01 T00631145  RH  021%=      5-min Rain = 0
KSB1 220952Z 02003KT 06/M15 A2986 RMK A01 T00621146  RH  021%=      5-min Rain = 0
KSB1 220953Z 02003KT 06/M15 A2986 RMK A01 T00621146  RH  021%=      5-min Rain = 0
KSB1 220954Z 01003KT 06/M15 A2986 RMK A01 T00621146  RH  021%=      5-min Rain = 0
KSB1 220955Z 01003KT 06/M15 A2986 RMK A01 T00631145  RH  021%=      5-min Rain = 0
KSB1 220956Z 01004KT 06/M15 A2986 RMK A01 T00631145  RH  021%=      5-min Rain = 0
KSB1 220957Z 01004KT 06/M15 A2986 RMK A01 T00641145  RH  021%=      5-min Rain = 0
KSB1 220958Z 01004KT 07/M15 A2986 RMK A01 T00651145  RH  021%=      5-min Rain = 0
KSB1 220959Z 01004KT 07/M15 A2986 RMK A01 T00651145  RH  021%=      5-min Rain = 0
KSB1 221000Z 01004KT 07/M15 A2986 RMK A01 T00661145  RH  021%=      5-min Rain = 0
KSB1 221001Z 01003KT 07/M15 A2986 RMK A01 T00661145  RH  021%=      5-min Rain = 0
KSB1 221002Z 01003KT 07/M15 A2986 RMK A01 T00651145  RH  021%=      5-min Rain = 0
KSB1 221003Z 01003KT 06/M15 A2986 RMK A01 T00641145  RH  021%=      5-min Rain = 0
KSB1 221004Z 02002KT 06/M15 A2986 RMK A01 T00641145  RH  021%=      5-min Rain = 0
KSB1 221005Z 02002KT 06/M15 A2986 RMK A01 T00641145  RH  021%=      5-min Rain = 0
KSB1 221006Z 02001KT 06/M15 A2986 RMK A01 T00641145  RH  021%=      5-min Rain = 0
KSB1 221007Z 02001KT 07/M14 A2986 RMK A01 T00651144  RH  021%=      5-min Rain = 0
KSB1 221008Z 04001KT 07/M14 A2986 RMK A01 T00651144  RH  021%=      5-min Rain = 0
KSB1 221009Z 05001KT 06/M15 A2986 RMK A01 T00641145  RH  021%=      5-min Rain = 0
KSB1 221010Z 06000KT 06/M15 A2986 RMK A01 T00621146  RH  021%=      5-min Rain = 0
KSB1 221011Z 06000KT 06/M15 A2986 RMK A01 T00601147  RH  021%=      5-min Rain = 0
KSB1 221012Z 10000KT 06/M15 A2986 RMK A01 T00581147  RH  021%=      5-min Rain = 0
KSB1 221013Z 12001KT 06/M15 A2986 RMK A01 T00571146  RH  021%=      5-min Rain = 0
KSB1 221014Z 14001KT 06/M15 A2986 RMK A01 T00571146  RH  022%=      5-min Rain = 0
KSB1 221015Z 15001KT 06/M15 A2986 RMK A01 T00551146  RH  022%=      5-min Rain = 0
KSB1 221016Z 16001KT 06/M15 A2986 RMK A01 T00551146  RH  022%=      5-min Rain = 0
KSB1 221017Z 16000KT 05/M15 A2986 RMK A01 T00541146  RH  022%=      5-min Rain = 0
KSB1 221018Z 17001KT 05/M15 A2986 RMK A01 T00541146  RH  022%=      5-min Rain = 0
KSB1 221019Z 00000KT 05/M15 A2986 RMK A01 T00541146  RH  022%=      5-min Rain = 0
KSB1 221020Z 12000KT 05/M15 A2986 RMK A01 T00541145  RH  022%=      5-min Rain = 0
KSB1 221021Z 11000KT 05/M15 A2986 RMK A01 T00541146  RH  022%=      5-min Rain = 0
KSB1 221022Z 11000KT 05/M15 A2986 RMK A01 T00541146  RH  022%=      5-min Rain = 0
KSB1 221023Z 00000KT 05/M15 A2986 RMK A01 T00541145  RH  022%=      5-min Rain = 0
KSB1 221024Z 00000KT 05/M15 A2986 RMK A01 T00541145  RH  022%=      5-min Rain = 0
KSB1 221025Z 00000KT 06/M15 A2986 RMK A01 T00551145  RH  022%=      5-min Rain = 0
KSB1 221026Z 00000KT 06/M15 A2986 RMK A01 T00551145  RH  022%=      5-min Rain = 0
KSB1 221027Z 00000KT 06/M15 A2986 RMK A01 T00561145  RH  022%=      5-min Rain = 0
KSB1 221028Z 00000KT 06/M15 A2986 RMK A01 T00561145  RH  022%=      5-min Rain = 0
KSB1 221029Z 00000KT 06/M15 A2986 RMK A01 T00561145  RH  022%=      5-min Rain = 0
KSB1 221030Z 02001KT 06/M15 A2986 RMK A01 T00561146  RH  022%=      5-min Rain = 0
KSB1 221031Z 03001KT 06/M15 A2986 RMK A01 T00561145  RH  022%=      5-min Rain = 0
KSB1 221032Z 03001KT 06/M15 A2986 RMK A01 T00561145  RH  022%=      5-min Rain = 0
KSB1 221033Z 03001KT 06/M15 A2986 RMK A01 T00551145  RH  022%=      5-min Rain = 0
KSB1 221034Z 04001KT 06/M15 A2986 RMK A01 T00551146  RH  022%=      5-min Rain = 0
KSB1 221035Z 05002KT 06/M15 A2986 RMK A01 T00561145  RH  022%=      5-min Rain = 0
KSB1 221036Z 05002KT 06/M14 A2986 RMK A01 T00571144  RH  022%=      5-min Rain = 0
KSB1 221037Z 04002KT 06/M14 A2986 RMK A01 T00581144  RH  022%=      5-min Rain = 0
KSB1 221038Z 05001KT 06/M15 A2986 RMK A01 T00581145  RH  022%=      5-min Rain = 0
KSB1 221039Z 04001KT 06/M15 A2986 RMK A01 T00581145  RH  022%=      5-min Rain = 0
KSB1 221040Z 04001KT 06/M15 A2986 RMK A01 T00581145  RH  022%=      5-min Rain = 0
KSB1 221041Z 04001KT 06/M15 A2986 RMK A01 T00571145  RH  022%=      5-min Rain = 0
KSB1 221042Z 04001KT 06/M15 A2986 RMK A01 T00571145  RH  022%=      5-min Rain = 0
KSB1 221043Z 04000KT 06/M15 A2986 RMK A01 T00561145  RH  022%=      5-min Rain = 0
KSB1 221044Z 00000KT 06/M15 A2986 RMK A01 T00561145  RH  022%=      5-min Rain = 0
KSB1 221045Z 00000KT 06/M15 A2986 RMK A01 T00551145  RH  022%=      5-min Rain = 0
KSB1 221046Z 00000KT 06/M15 A2986 RMK A01 T00551145  RH  022%=      5-min Rain = 0
KSB1 221047Z 00000KT 06/M15 A2986 RMK A01 T00551145  RH  022%=      5-min Rain = 0
KSB1 221048Z 02000KT 06/M15 A2986 RMK A01 T00551145  RH  022%=      5-min Rain = 0
KSB1 221049Z 01001KT 05/M15 A2986 RMK A01 T00541145  RH  022%=      5-min Rain = 0
KSB1 221050Z 01001KT 05/M15 A2986 RMK A01 T00541145  RH  022%=      5-min Rain = 0
KSB1 221051Z 00000KT 05/M15 A2986 RMK A01 T00541145  RH  022%=      5-min Rain = 0
KSB1 221052Z 36001KT 05/M15 A2986 RMK A01 T00541145  RH  022%=      5-min Rain = 0
KSB1 221053Z 35002KT 05/M15 A2987 RMK A01 T00531145  RH  022%=      5-min Rain = 0
KSB1 221054Z 35002KT 05/M15 A2987 RMK A01 T00521145  RH  022%=      5-min Rain = 0
KSB1 221055Z 35002KT 05/M15 A2987 RMK A01 T00521146  RH  022%=      5-min Rain = 0
KSB1 221056Z 35003KT 05/M15 A2987 RMK A01 T00531145  RH  023%=      5-min Rain = 0
KSB1 221057Z 35004KT 05/M14 A2987 RMK A01 T00541144  RH  022%=      5-min Rain = 0
KSB1 221058Z 36004KT 05/M14 A2987 RMK A01 T00541143  RH  023%=      5-min Rain = 0
KSB1 221059Z 35004KT 06/M14 A2987 RMK A01 T00551143  RH  022%=      5-min Rain = 0
KSB1 221100Z 35005KT 06/M14 A2987 RMK A01 T00561143  RH  022%=      5-min Rain = 0
KSB1 221101Z 34005KT 06/M14 A2987 RMK A01 T00561143  RH  022%=      5-min Rain = 0
KSB1 221102Z 35005KT 06/M14 A2987 RMK A01 T00571142  RH  022%=      5-min Rain = 0
KSB1 221103Z 34005KT 06/M14 A2987 RMK A01 T00571142  RH  022%=      5-min Rain = 0
KSB1 221104Z 34005KT 06/M14 A2987 RMK A01 T00591141  RH  022%=      5-min Rain = 0
KSB1 221105Z 34005KT 06/M14 A2987 RMK A01 T00591141  RH  022%=      5-min Rain = 0
KSB1 221106Z 35005KT 06/M14 A2987 RMK A01 T00601141  RH  022%=      5-min Rain = 0
KSB1 221107Z 35005KT 06/M14 A2987 RMK A01 T00611141  RH  022%=      5-min Rain = 0
KSB1 221108Z 35005KT 06/M14 A2987 RMK A01 T00601141  RH  022%=      5-min Rain = 0
KSB1 221109Z 35006KT 06/M14 A2987 RMK A01 T00601141  RH  022%=      5-min Rain = 0
KSB1 221110Z 35006KT 06/M14 A2987 RMK A01 T00601141  RH  022%=      5-min Rain = 0
KSB1 221111Z 35006KT 06/M14 A2987 RMK A01 T00601141  RH  022%=      5-min Rain = 0
KSB1 221112Z 34006KT 06/M14 A2987 RMK A01 T00611141  RH  022%=      5-min Rain = 0
KSB1 221113Z 33006KT 06/M14 A2987 RMK A01 T00611141  RH  022%=      5-min Rain = 0
KSB1 221114Z 33005KT 06/M14 A2987 RMK A01 T00591142  RH  022%=      5-min Rain = 0
KSB1 221115Z 34005KT 06/M14 A2987 RMK A01 T00581141  RH  022%=      5-min Rain = 0
KSB1 221116Z 34005KT 06/M14 A2987 RMK A01 T00581141  RH  022%=      5-min Rain = 0
KSB1 221117Z 33006KT 06/M14 A2987 RMK A01 T00571141  RH  023%=      5-min Rain = 0
KSB1 221118Z 33006KT 06/M14 A2987 RMK A01 T00571140  RH  023%=      5-min Rain = 0
KSB1 221119Z 33006KT 06/M14 A2987 RMK A01 T00571140  RH  023%=      5-min Rain = 0
KSB1 221120Z 33005KT 06/M14 A2987 RMK A01 T00571140  RH  023%=      5-min Rain = 0
KSB1 221121Z 33005KT 06/M14 A2987 RMK A01 T00571140  RH  023%=      5-min Rain = 0
KSB1 221122Z 33005KT 06/M14 A2987 RMK A01 T00571139  RH  023%=      5-min Rain = 0
KSB1 221123Z 33004KT 06/M14 A2987 RMK A01 T00571139  RH  023%=      5-min Rain = 0
KSB1 221124Z 35005KT 06/M14 A2987 RMK A01 T00571139  RH  023%=      5-min Rain = 0
KSB1 221125Z 35005KT 06/M14 A2987 RMK A01 T00571139  RH  023%=      5-min Rain = 0
KSB1 221126Z 35004KT 06/M14 A2987 RMK A01 T00571139  RH  023%=      5-min Rain = 0
KSB1 221127Z 34004KT 06/M14 A2987 RMK A01 T00581139  RH  023%=      5-min Rain = 0
KSB1 221128Z 34004KT 06/M14 A2987 RMK A01 T00581138  RH  023%=      5-min Rain = 0
KSB1 221129Z 34004KT 06/M14 A2987 RMK A01 T00581139  RH  023%=      5-min Rain = 0
KSB1 221130Z 34005KT 06/M14 A2987 RMK A01 T00581139  RH  023%=      5-min Rain = 0
KSB1 221131Z 34005KT 06/M14 A2987 RMK A01 T00571139  RH  023%=      5-min Rain = 0
KSB1 221132Z 34005KT 06/M14 A2987 RMK A01 T00581139  RH  023%=      5-min Rain = 0
KSB1 221133Z 34005KT 06/M14 A2987 RMK A01 T00581139  RH  023%=      5-min Rain = 0
KSB1 221134Z 35004KT 06/M14 A2987 RMK A01 T00581139  RH  023%=      5-min Rain = 0
KSB1 221135Z 36004KT 06/M14 A2987 RMK A01 T00581139  RH  023%=      5-min Rain = 0
KSB1 221136Z 36004KT 06/M14 A2987 RMK A01 T00581139  RH  023%=      5-min Rain = 0
KSB1 221137Z 35004KT 06/M14 A2987 RMK A01 T00581139  RH  023%=      5-min Rain = 0
KSB1 221138Z 35003KT 06/M14 A2987 RMK A01 T00581139  RH  023%=      5-min Rain = 0
KSB1 221139Z 36003KT 06/M14 A2987 RMK A01 T00581139  RH  023%=      5-min Rain = 0
KSB1 221140Z 35003KT 06/M14 A2987 RMK A01 T00581139  RH  023%=      5-min Rain = 0
KSB1 221141Z 01003KT 06/M14 A2987 RMK A01 T00581139  RH  023%=      5-min Rain = 0
KSB1 221142Z 35003KT 06/M14 A2987 RMK A01 T00571139  RH  023%=      5-min Rain = 0
KSB1 221143Z 34003KT 06/M14 A2987 RMK A01 T00571139  RH  023%=      5-min Rain = 0
KSB1 221144Z 34003KT 06/M14 A2987 RMK A01 T00571140  RH  023%=      5-min Rain = 0
KSB1 221145Z 34004KT 06/M14 A2987 RMK A01 T00581139  RH  023%=      5-min Rain = 0
KSB1 221146Z 34004KT 06/M14 A2987 RMK A01 T00581139  RH  023%=      5-min Rain = 0
KSB1 221147Z 35004KT 06/M14 A2987 RMK A01 T00581139  RH  023%=      5-min Rain = 0
KSB1 221148Z 35004KT 06/M14 A2987 RMK A01 T00581139  RH  023%=      5-min Rain = 0
KSB1 221149Z 35004KT 06/M14 A2987 RMK A01 T00571139  RH  023%=      5-min Rain = 0
KSB1 221150Z 35004KT 06/M14 A2987 RMK A01 T00581139  RH  023%=      5-min Rain = 0
KSB1 221151Z 35004KT 06/M14 A2987 RMK A01 T00591139  RH  023%=      5-min Rain = 0
KSB1 221152Z 34004KT 06/M14 A2987 RMK A01 T00591139  RH  023%=      5-min Rain = 0
KSB1 221153Z 35004KT 06/M14 A2987 RMK A01 T00591139  RH  023%=      5-min Rain = 0
KSB1 221154Z 34005KT 06/M14 A2987 RMK A01 T00591139  RH  022%=      5-min Rain = 0
KSB1 221155Z 34005KT 06/M14 A2987 RMK A01 T00601140  RH  022%=      5-min Rain = 0
KSB1 221156Z 34005KT 06/M14 A2987 RMK A01 T00601139  RH  022%=      5-min Rain = 0
KSB1 221157Z 35005KT 06/M14 A2987 RMK A01 T00601139  RH  022%=      5-min Rain = 0
KSB1 221158Z 34005KT 06/M14 A2987 RMK A01 T00611139  RH  022%=      5-min Rain = 0
KSB1 221159Z 34004KT 06/M14 A2987 RMK A01 T00601139  RH  022%=      5-min Rain = 0
KSB1 221200Z 34004KT 06/M14 A2987 RMK A01 T00601139  RH  022%=      5-min Rain = 0
KSB1 221201Z 33004KT 06/M14 A2987 RMK A01 T00601140  RH  022%=      5-min Rain = 0
KSB1 221202Z 32004KT 06/M14 A2987 RMK A01 T00611140  RH  022%=      5-min Rain = 0
KSB1 221203Z 32004KT 06/M14 A2987 RMK A01 T00611140  RH  022%=      5-min Rain = 0
KSB1 221204Z 32004KT 06/M14 A2987 RMK A01 T00611139  RH  022%=      5-min Rain = 0
KSB1 221205Z 32004KT 06/M14 A2988 RMK A01 T00611140  RH  022%=      5-min Rain = 0
KSB1 221206Z 32003KT 06/M14 A2988 RMK A01 T00611140  RH  022%=      5-min Rain = 0
KSB1 221207Z 33003KT 06/M14 A2988 RMK A01 T00601140  RH  022%=      5-min Rain = 0
KSB1 221208Z 33004KT 06/M14 A2987 RMK A01 T00591140  RH  022%=      5-min Rain = 0
KSB1 221209Z 33004KT 06/M14 A2988 RMK A01 T00591140  RH  022%=      5-min Rain = 0
KSB1 221210Z 33004KT 06/M14 A2988 RMK A01 T00601139  RH  022%=      5-min Rain = 0
KSB1 221211Z 34004KT 06/M14 A2988 RMK A01 T00601139  RH  022%=      5-min Rain = 0
KSB1 221212Z 34004KT 06/M14 A2988 RMK A01 T00611139  RH  022%=      5-min Rain = 0
KSB1 221213Z 34004KT 06/M14 A2988 RMK A01 T00611139  RH  022%=      5-min Rain = 0
KSB1 221214Z 34005KT 06/M14 A2988 RMK A01 T00611139  RH  022%=      5-min Rain = 0
KSB1 221215Z 34004KT 06/M14 A2988 RMK A01 T00611139  RH  022%=      5-min Rain = 0
KSB1 221216Z 34004KT 06/M14 A2988 RMK A01 T00601139  RH  022%=      5-min Rain = 0
KSB1 221217Z 34004KT 06/M14 A2988 RMK A01 T00601139  RH  022%=      5-min Rain = 0
KSB1 221218Z 34003KT 06/M14 A2988 RMK A01 T00601139  RH  022%=      5-min Rain = 0
KSB1 221219Z 34003KT 06/M14 A2988 RMK A01 T00611139  RH  022%=      5-min Rain = 0
KSB1 221220Z 34003KT 06/M14 A2988 RMK A01 T00611139  RH  022%=      5-min Rain = 0
KSB1 221221Z 35003KT 06/M14 A2988 RMK A01 T00611139  RH  022%=      5-min Rain = 0
KSB1 221222Z 35003KT 06/M14 A2988 RMK A01 T00611138  RH  022%=      5-min Rain = 0
KSB1 221223Z 34003KT 06/M14 A2988 RMK A01 T00611139  RH  022%=      5-min Rain = 0
KSB1 221224Z 34003KT 06/M14 A2988 RMK A01 T00611139  RH  022%=      5-min Rain = 0
KSB1 221225Z 34003KT 06/M14 A2988 RMK A01 T00621139  RH  022%=      5-min Rain = 0
KSB1 221226Z 34003KT 06/M14 A2988 RMK A01 T00631138  RH  022%=      5-min Rain = 0
KSB1 221227Z 35003KT 06/M14 A2988 RMK A01 T00631138  RH  022%=      5-min Rain = 0
KSB1 221228Z 34003KT 06/M14 A2988 RMK A01 T00631138  RH  022%=      5-min Rain = 0
KSB1 221229Z 34003KT 06/M14 A2988 RMK A01 T00631139  RH  022%=      5-min Rain = 0
KSB1 221230Z 35002KT 06/M14 A2988 RMK A01 T00631139  RH  022%=      5-min Rain = 0
KSB1 221231Z 34002KT 06/M14 A2988 RMK A01 T00631139  RH  022%=      5-min Rain = 0
KSB1 221232Z 34002KT 06/M14 A2988 RMK A01 T00641139  RH  022%=      5-min Rain = 0
KSB1 221233Z 34002KT 06/M14 A2988 RMK A01 T00641138  RH  022%=      5-min Rain = 0
KSB1 221234Z 34002KT 07/M14 A2988 RMK A01 T00651138  RH  022%=      5-min Rain = 0
KSB1 221235Z 34002KT 07/M14 A2988 RMK A01 T00651138  RH  022%=      5-min Rain = 0
KSB1 221236Z 34002KT 07/M14 A2988 RMK A01 T00661138  RH  022%=      5-min Rain = 0
KSB1 221237Z 33000KT 07/M14 A2988 RMK A01 T00661138  RH  022%=      5-min Rain = 0
KSB1 221238Z 00000KT 06/M14 A2988 RMK A01 T00621141  RH  022%=      5-min Rain = 0
KSB1 221239Z 24001KT 06/M14 A2988 RMK A01 T00551143  RH  022%=      5-min Rain = 0
KSB1 221240Z 23002KT 05/M14 A2988 RMK A01 T00521143  RH  023%=      5-min Rain = 0
KSB1 221241Z 22000KT 05/M14 A2988 RMK A01 T00511142  RH  023%=      5-min Rain = 0
KSB1 221242Z 23001KT 05/M14 A2988 RMK A01 T00521142  RH  023%=      5-min Rain = 0
KSB1 221243Z 22000KT 05/M14 A2988 RMK A01 T00521142  RH  023%=      5-min Rain = 0
KSB1 221244Z 22001KT 05/M14 A2988 RMK A01 T00531142  RH  023%=      5-min Rain = 0
KSB1 221245Z 23001KT 05/M14 A2988 RMK A01 T00541141  RH  023%=      5-min Rain = 0
KSB1 221246Z 23001KT 05/M14 A2988 RMK A01 T00541142  RH  023%=      5-min Rain = 0
KSB1 221247Z 24002KT 05/M14 A2988 RMK A01 T00541142  RH  023%=      5-min Rain = 0
KSB1 221248Z 24002KT 05/M14 A2988 RMK A01 T00541142  RH  023%=      5-min Rain = 0
KSB1 221249Z 25002KT 05/M14 A2988 RMK A01 T00531142  RH  023%=      5-min Rain = 0
KSB1 221250Z 25002KT 05/M14 A2988 RMK A01 T00521142  RH  023%=      5-min Rain = 0
KSB1 221251Z 25002KT 05/M14 A2989 RMK A01 T00521141  RH  023%=      5-min Rain = 0
KSB1 221252Z 25002KT 05/M14 A2989 RMK A01 T00521141  RH  023%=      5-min Rain = 0
KSB1 221253Z 25002KT 05/M14 A2989 RMK A01 T00531141  RH  023%=      5-min Rain = 0
KSB1 221254Z 25002KT 05/M14 A2989 RMK A01 T00531142  RH  023%=      5-min Rain = 0
KSB1 221255Z 24002KT 05/M14 A2989 RMK A01 T00531141  RH  023%=      5-min Rain = 0
KSB1 221256Z 24002KT 05/M14 A2989 RMK A01 T00541141  RH  023%=      5-min Rain = 0
KSB1 221257Z 24001KT 05/M14 A2989 RMK A01 T00541141  RH  023%=      5-min Rain = 0
KSB1 221258Z 22001KT 05/M14 A2989 RMK A01 T00531141  RH  023%=      5-min Rain = 0
KSB1 221259Z 21001KT 05/M14 A2989 RMK A01 T00531141  RH  023%=      5-min Rain = 0
KSB1 221300Z 21001KT 05/M14 A2989 RMK A01 T00531142  RH  023%=      5-min Rain = 0
KSB1 221301Z 21001KT 05/M14 A2989 RMK A01 T00531141  RH  023%=      5-min Rain = 0
KSB1 221302Z 20001KT 05/M14 A2989 RMK A01 T00531141  RH  023%=      5-min Rain = 0
KSB1 221303Z 20001KT 05/M14 A2989 RMK A01 T00531141  RH  023%=      5-min Rain = 0
KSB1 221304Z 19002KT 05/M14 A2989 RMK A01 T00531142  RH  023%=      5-min Rain = 0
KSB1 221305Z 19001KT 05/M14 A2989 RMK A01 T00531141  RH  023%=      5-min Rain = 0
KSB1 221306Z 18001KT 05/M14 A2989 RMK A01 T00531142  RH  023%=      5-min Rain = 0
KSB1 221307Z 18001KT 05/M14 A2989 RMK A01 T00531141  RH  023%=      5-min Rain = 0
KSB1 221308Z 17001KT 05/M14 A2989 RMK A01 T00531141  RH  023%=      5-min Rain = 0
KSB1 221309Z 16001KT 05/M14 A2989 RMK A01 T00541141  RH  023%=      5-min Rain = 0
KSB1 221310Z 16001KT 05/M14 A2989 RMK A01 T00531142  RH  023%=      5-min Rain = 0
KSB1 221311Z 17001KT 05/M14 A2989 RMK A01 T00521141  RH  023%=      5-min Rain = 0
KSB1 221312Z 00000KT 05/M14 A2989 RMK A01 T00521142  RH  023%=      5-min Rain = 0
KSB1 221313Z 00000KT 05/M14 A2989 RMK A01 T00521141  RH  023%=      5-min Rain = 0
KSB1 221314Z 00000KT 05/M14 A2989 RMK A01 T00501142  RH  023%=      5-min Rain = 0
KSB1 221315Z 00000KT 05/M14 A2989 RMK A01 T00451142  RH  024%=      5-min Rain = 0
KSB1 221316Z 00000KT 04/M14 A2989 RMK A01 T00431142  RH  025%=      5-min Rain = 0
KSB1 221317Z 02000KT 04/M14 A2989 RMK A01 T00431142  RH  025%=      5-min Rain = 0
KSB1 221318Z 01001KT 04/M14 A2989 RMK A01 T00431141  RH  025%=      5-min Rain = 0
KSB1 221319Z 01002KT 05/M14 A2989 RMK A01 T00451140  RH  025%=      5-min Rain = 0
KSB1 221320Z 01002KT 05/M14 A2989 RMK A01 T00461139  RH  025%=      5-min Rain = 0
KSB1 221321Z 03002KT 05/M14 A2989 RMK A01 T00471139  RH  024%=      5-min Rain = 0
KSB1 221322Z 03004KT 05/M14 A2989 RMK A01 T00481139  RH  024%=      5-min Rain = 0
KSB1 221323Z 03004KT 05/M14 A2989 RMK A01 T00481140  RH  024%=      5-min Rain = 0
KSB1 221324Z 03004KT 05/M14 A2989 RMK A01 T00471140  RH  024%=      5-min Rain = 0
KSB1 221325Z 03004KT 05/M14 A2989 RMK A01 T00471140  RH  024%=      5-min Rain = 0
KSB1 221326Z 03003KT 05/M14 A2989 RMK A01 T00461140  RH  025%=      5-min Rain = 0
KSB1 221327Z 03003KT 05/M14 A299 RMK A01 T00451140  RH  025%=      5-min Rain = 0
KSB1 221328Z 03003KT 05/M14 A2989 RMK A01 T00451140  RH  025%=      5-min Rain = 0
KSB1 221329Z 03003KT 05/M14 A2989 RMK A01 T00451140  RH  025%=      5-min Rain = 0
KSB1 221330Z 04002KT 05/M14 A2989 RMK A01 T00461140  RH  025%=      5-min Rain = 0
KSB1 221331Z 03001KT 05/M14 A299 RMK A01 T00461140  RH  025%=      5-min Rain = 0
KSB1 221332Z 02001KT 05/M14 A299 RMK A01 T00461140  RH  025%=      5-min Rain = 0
KSB1 221333Z 01000KT 05/M14 A299 RMK A01 T00461140  RH  025%=      5-min Rain = 0
KSB1 221334Z 00000KT 05/M14 A299 RMK A01 T00451140  RH  025%=      5-min Rain = 0
KSB1 221335Z 00000KT 05/M14 A299 RMK A01 T00451140  RH  025%=      5-min Rain = 0
KSB1 221336Z 00000KT 05/M14 A299 RMK A01 T00451140  RH  025%=      5-min Rain = 0
KSB1 221337Z 00000KT 05/M14 A299 RMK A01 T00451140  RH  025%=      5-min Rain = 0
KSB1 221338Z 00000KT 04/M14 A2989 RMK A01 T00431140  RH  025%=      5-min Rain = 0
KSB1 221339Z 00000KT 04/M14 A2989 RMK A01 T00401141  RH  025%=      5-min Rain = 0
KSB1 221340Z 00000KT 04/M14 A299 RMK A01 T00391140  RH  026%=      5-min Rain = 0
KSB1 221341Z 00000KT 04/M14 A299 RMK A01 T00411139  RH  026%=      5-min Rain = 0
KSB1 221342Z 28001KT 04/M14 A299 RMK A01 T00411139  RH  025%=      5-min Rain = 0
KSB1 221343Z 28001KT 04/M14 A299 RMK A01 T00411140  RH  025%=      5-min Rain = 0
KSB1 221344Z 28001KT 04/M14 A299 RMK A01 T00401140  RH  026%=      5-min Rain = 0
KSB1 221345Z 26001KT 04/M14 A299 RMK A01 T00401140  RH  026%=      5-min Rain = 0
KSB1 221346Z 25001KT 04/M14 A299 RMK A01 T00401140  RH  026%=      5-min Rain = 0
KSB1 221347Z 27001KT 04/M14 A299 RMK A01 T00411140  RH  025%=      5-min Rain = 0
KSB1 221348Z 27001KT 04/M14 A299 RMK A01 T00421140  RH  025%=      5-min Rain = 0
KSB1 221349Z 28001KT 04/M14 A299 RMK A01 T00431140  RH  025%=      5-min Rain = 0
KSB1 221350Z 26001KT 04/M14 A299 RMK A01 T00441140  RH  025%=      5-min Rain = 0
KSB1 221351Z 25002KT 05/M14 A299 RMK A01 T00451140  RH  025%=      5-min Rain = 0
KSB1 221352Z 25001KT 05/M14 A299 RMK A01 T00461140  RH  025%=      5-min Rain = 0
KSB1 221353Z 25001KT 05/M14 A299 RMK A01 T00461140  RH  024%=      5-min Rain = 0
KSB1 221354Z 00000KT 05/M14 A299 RMK A01 T00461140  RH  024%=      5-min Rain = 0
KSB1 221355Z 00000KT 05/M14 A299 RMK A01 T00461140  RH  024%=      5-min Rain = 0
KSB1 221356Z 00000KT 05/M14 A299 RMK A01 T00471140  RH  024%=      5-min Rain = 0
KSB1 221357Z 00000KT 05/M14 A299 RMK A01 T00471141  RH  024%=      5-min Rain = 0
KSB1 221358Z 00000KT 05/M14 A299 RMK A01 T00471140  RH  024%=      5-min Rain = 0
KSB1 221359Z 00000KT 05/M14 A299 RMK A01 T00471139  RH  024%=      5-min Rain = 0
KSB1 221400Z 00000KT 05/M14 A299 RMK A01 T00471139  RH  025%=      5-min Rain = 0
KSB1 221401Z 00000KT 05/M14 A299 RMK A01 T00481139  RH  025%=      5-min Rain = 0
KSB1 221402Z 29000KT 05/M14 A299 RMK A01 T00481139  RH  025%=      5-min Rain = 0
KSB1 221403Z 30001KT 05/M14 A299 RMK A01 T00481139  RH  025%=      5-min Rain = 0
KSB1 221404Z 29001KT 05/M14 A299 RMK A01 T00481139  RH  024%=      5-min Rain = 0
KSB1 221405Z 28001KT 05/M14 A299 RMK A01 T00481139  RH  024%=      5-min Rain = 0
KSB1 221406Z 29001KT 05/M14 A299 RMK A01 T00491138  RH  024%=      5-min Rain = 0
KSB1 221407Z 33001KT 05/M14 A299 RMK A01 T00491138  RH  024%=      5-min Rain = 0
KSB1 221408Z 35001KT 05/M14 A299 RMK A01 T00491138  RH  024%=      5-min Rain = 0
KSB1 221409Z 35001KT 05/M14 A299 RMK A01 T00501137  RH  025%=      5-min Rain = 0
KSB1 221410Z 35001KT 05/M14 A299 RMK A01 T00501136  RH  025%=      5-min Rain = 0
KSB1 221411Z 35000KT 05/M14 A299 RMK A01 T00491136  RH  025%=      5-min Rain = 0
KSB1 221412Z 24001KT 05/M14 A299 RMK A01 T00491135  RH  025%=      5-min Rain = 0
KSB1 221413Z 23001KT 05/M14 A299 RMK A01 T00501135  RH  025%=      5-min Rain = 0
KSB1 221414Z 00000KT 05/M13 A299 RMK A01 T00511134  RH  025%=      5-min Rain = 0
KSB1 221415Z 00000KT 05/M13 A299 RMK A01 T00541134  RH  024%=      5-min Rain = 0
KSB1 221416Z 00000KT 06/M14 A299 RMK A01 T00571135  RH  024%=      5-min Rain = 0
KSB1 221417Z 00000KT 06/M13 A299 RMK A01 T00601134  RH  023%=      5-min Rain = 0
KSB1 221418Z 00000KT 06/M13 A299 RMK A01 T00621134  RH  023%=      5-min Rain = 0
KSB1 221419Z 00000KT 06/M13 A299 RMK A01 T00641134  RH  023%=      5-min Rain = 0
KSB1 221420Z 23000KT 07/M14 A299 RMK A01 T00651135  RH  022%=      5-min Rain = 0
KSB1 221421Z 22001KT 06/M14 A299 RMK A01 T00631137  RH  022%=      5-min Rain = 0
KSB1 221422Z 23001KT 06/M14 A299 RMK A01 T00611139  RH  022%=      5-min Rain = 0
KSB1 221423Z 25001KT 06/M14 A299 RMK A01 T00601138  RH  023%=      5-min Rain = 0
KSB1 221424Z 26000KT 06/M14 A299 RMK A01 T00601138  RH  023%=      5-min Rain = 0
KSB1 221425Z 00000KT 06/M14 A299 RMK A01 T00611136  RH  023%=      5-min Rain = 0
KSB1 221426Z 00000KT 06/M14 A299 RMK A01 T00641135  RH  023%=      5-min Rain = 0
KSB1 221427Z 00000KT 07/M14 A299 RMK A01 T00671135  RH  022%=      5-min Rain = 0
KSB1 221428Z 21000KT 07/M14 A299 RMK A01 T00681135  RH  022%=      5-min Rain = 0
KSB1 221429Z 22002KT 07/M14 A299 RMK A01 T00661137  RH  022%=      5-min Rain = 0
KSB1 221430Z 24002KT 06/M14 A299 RMK A01 T00641137  RH  022%=      5-min Rain = 0
KSB1 221431Z 25002KT 06/M14 A299 RMK A01 T00631136  RH  023%=      5-min Rain = 0
KSB1 221432Z 25002KT 06/M13 A299 RMK A01 T00621134  RH  023%=      5-min Rain = 0
KSB1 221433Z 26001KT 06/M13 A299 RMK A01 T00621134  RH  023%=      5-min Rain = 0
KSB1 221434Z 00000KT 06/M13 A299 RMK A01 T00641132  RH  023%=      5-min Rain = 0
KSB1 221435Z 00000KT 07/M13 A299 RMK A01 T00671131  RH  023%=      5-min Rain = 0
KSB1 221436Z 05000KT 07/M13 A299 RMK A01 T00691133  RH  022%=      5-min Rain = 0
KSB1 221437Z 04001KT 07/M13 A299 RMK A01 T00691134  RH  022%=      5-min Rain = 0
KSB1 221438Z 03002KT 07/M14 A299 RMK A01 T00701136  RH  022%=      5-min Rain = 0
KSB1 221439Z 03001KT 07/M14 A299 RMK A01 T00701136  RH  021%=      5-min Rain = 0
KSB1 221440Z 04001KT 07/M14 A299 RMK A01 T00701135  RH  022%=      5-min Rain = 0
KSB1 221441Z 04000KT 07/M14 A2991 RMK A01 T00701135  RH  022%=      5-min Rain = 0
KSB1 221442Z 08000KT 07/M13 A2991 RMK A01 T00701134  RH  022%=      5-min Rain = 0
KSB1 221443Z 08000KT 07/M13 A2991 RMK A01 T00701133  RH  022%=      5-min Rain = 0
KSB1 221444Z 08001KT 07/M13 A2991 RMK A01 T00681134  RH  022%=      5-min Rain = 0
KSB1 221445Z 09001KT 07/M13 A2991 RMK A01 T00681133  RH  022%=      5-min Rain = 0
KSB1 221446Z 09002KT 07/M13 A2991 RMK A01 T00671134  RH  022%=      5-min Rain = 0
KSB1 221447Z 07002KT 07/M13 A2991 RMK A01 T00651134  RH  022%=      5-min Rain = 0
KSB1 221448Z 05001KT 06/M13 A2991 RMK A01 T00641133  RH  023%=      5-min Rain = 0
KSB1 221449Z 06000KT 06/M13 A2991 RMK A01 T00631133  RH  023%=      5-min Rain = 0
KSB1 221450Z 00000KT 06/M13 A2991 RMK A01 T00621132  RH  023%=      5-min Rain = 0
KSB1 221451Z 09000KT 06/M13 A2991 RMK A01 T00611133  RH  023%=      5-min Rain = 0
KSB1 221452Z 10002KT 06/M13 A2991 RMK A01 T00621132  RH  024%=      5-min Rain = 0
KSB1 221453Z 12003KT 06/M13 A2991 RMK A01 T00611132  RH  024%=      5-min Rain = 0
KSB1 221454Z 11003KT 06/M13 A2991 RMK A01 T00591134  RH  023%=      5-min Rain = 0
KSB1 221455Z 11003KT 06/M13 A2991 RMK A01 T00581134  RH  024%=      5-min Rain = 0
KSB1 221456Z 11003KT 06/M13 A2991 RMK A01 T00571134  RH  024%=      5-min Rain = 0
KSB1 221457Z 11003KT 06/M13 A2991 RMK A01 T00571134  RH  024%=      5-min Rain = 0
KSB1 221458Z 12002KT 06/M13 A2991 RMK A01 T00571134  RH  024%=      5-min Rain = 0
KSB1 221459Z 11002KT 06/M13 A2991 RMK A01 T00581134  RH  024%=      5-min Rain = 0
KSB1 221500Z 12002KT 06/M13 A2991 RMK A01 T00611132  RH  024%=      5-min Rain = 0
KSB1 221501Z 11002KT 06/M13 A2991 RMK A01 T00631131  RH  023%=      5-min Rain = 0
KSB1 221502Z 12002KT 07/M13 A2991 RMK A01 T00651132  RH  023%=      5-min Rain = 0
KSB1 221503Z 10001KT 07/M13 A2991 RMK A01 T00661133  RH  023%=      5-min Rain = 0
KSB1 221504Z 09002KT 07/M13 A2991 RMK A01 T00671133  RH  022%=      5-min Rain = 0
KSB1 221505Z 09001KT 07/M13 A2991 RMK A01 T00681133  RH  022%=      5-min Rain = 0
KSB1 221506Z 08001KT 07/M13 A2991 RMK A01 T00691133  RH  022%=      5-min Rain = 0
KSB1 221507Z 09001KT 07/M13 A2991 RMK A01 T00701133  RH  022%=      5-min Rain = 0
KSB1 221508Z 12001KT 07/M14 A2991 RMK A01 T00701135  RH  022%=      5-min Rain = 0
KSB1 221509Z 10001KT 07/M13 A2991 RMK A01 T00701134  RH  022%=      5-min Rain = 0
KSB1 221510Z 08001KT 07/M13 A2991 RMK A01 T00721134  RH  022%=      5-min Rain = 0
KSB1 221511Z 08001KT 08/M13 A2991 RMK A01 T00751132  RH  022%=      5-min Rain = 0
KSB1 221512Z 08001KT 08/M13 A2991 RMK A01 T00761131  RH  021%=      5-min Rain = 0
KSB1 221513Z 09001KT 08/M13 A2991 RMK A01 T00781131  RH  021%=      5-min Rain = 0
KSB1 221514Z 08000KT 08/M13 A2991 RMK A01 T00791132  RH  021%=      5-min Rain = 0
KSB1 221515Z 08000KT 08/M13 A2991 RMK A01 T00811132  RH  021%=      5-min Rain = 0
KSB1 221516Z 11001KT 08/M13 A2991 RMK A01 T00821132  RH  020%=      5-min Rain = 0
KSB1 221517Z 12002KT 08/M13 A2991 RMK A01 T00841131  RH  020%=      5-min Rain = 0
KSB1 221518Z 12002KT 09/M13 A2991 RMK A01 T00861131  RH  020%=      5-min Rain = 0
KSB1 221519Z 12001KT 09/M13 A2991 RMK A01 T00881131  RH  020%=      5-min Rain = 0
KSB1 221520Z 10000KT 09/M13 A2991 RMK A01 T00891132  RH  019%=      5-min Rain = 0
KSB1 221521Z 15000KT 09/M13 A2991 RMK A01 T00911131  RH  019%=      5-min Rain = 0
KSB1 221522Z 12001KT 09/M13 A2991 RMK A01 T00921131  RH  019%=      5-min Rain = 0
KSB1 221523Z 14003KT 09/M13 A2991 RMK A01 T00941129  RH  019%=      5-min Rain = 0
KSB1 221524Z 14002KT 10/M13 A2991 RMK A01 T00951128  RH  019%=      5-min Rain = 0
KSB1 221525Z 14003KT 10/M13 A2991 RMK A01 T00971128  RH  019%=      5-min Rain = 0
KSB1 221526Z 14003KT 10/M13 A2991 RMK A01 T00981128  RH  019%=      5-min Rain = 0
KSB1 221527Z 14003KT 10/M13 A2991 RMK A01 T00971129  RH  019%=      5-min Rain = 0
KSB1 221528Z 13004KT 10/M13 A2991 RMK A01 T00971127  RH  019%=      5-min Rain = 0
KSB1 221529Z 14004KT 10/M12 A2991 RMK A01 T00971119  RH  021%=      5-min Rain = 0
KSB1 221530Z 15006KT 10/M12 A2991 RMK A01 T00971117  RH  021%=      5-min Rain = 0
KSB1 221531Z 15005KT 10/M12 A2991 RMK A01 T00981117  RH  021%=      5-min Rain = 0
KSB1 221532Z 16006KT 10/M12 A2991 RMK A01 T00981118  RH  021%=      5-min Rain = 0
KSB1 221533Z 18005KT 10/M12 A2991 RMK A01 T00971118  RH  021%=      5-min Rain = 0
KSB1 221534Z 17004KT 10/M12 A2991 RMK A01 T00961117  RH  021%=      5-min Rain = 0
KSB1 221535Z 17004KT 10/M11 A2991 RMK A01 T00971114  RH  021%=      5-min Rain = 0
KSB1 221536Z 16007KT 10/M11 A2991 RMK A01 T00981111  RH  022%=      5-min Rain = 0
KSB1 221537Z 17010KT 10/M11 A2991 RMK A01 T01001108  RH  022%=      5-min Rain = 0
KSB1 221538Z 17012KT 10/M10 A2991 RMK A01 T01011101  RH  023%=      5-min Rain = 0
KSB1 221539Z 18011KT 10/M10 A2991 RMK A01 T01021098  RH  023%=      5-min Rain = 0
KSB1 221540Z 18011KT 10/M10 A2991 RMK A01 T01031096  RH  024%=      5-min Rain = 0
KSB1 221541Z 18013KT 10/M10 A2991 RMK A01 T01031095  RH  024%=      5-min Rain = 0
KSB1 221542Z 18011KT 10/M10 A2991 RMK A01 T01031095  RH  024%=      5-min Rain = 0
KSB1 221543Z 17011KT 10/M09 A2991 RMK A01 T01031092  RH  024%=      5-min Rain = 0
KSB1 221544Z 17010KT 11/M09 A2991 RMK A01 T01051091  RH  024%=      5-min Rain = 0
KSB1 221545Z 18013KT 11/M09 A2991 RMK A01 T01061092  RH  024%=      5-min Rain = 0
KSB1 221546Z 17013KT 11/M09 A2991 RMK A01 T01051093  RH  024%=      5-min Rain = 0
KSB1 221547Z 17010KT 11/M09 A2991 RMK A01 T01051092  RH  024%=      5-min Rain = 0
KSB1 221548Z 17011KT 11/M09 A2991 RMK A01 T01061092  RH  024%=      5-min Rain = 0
KSB1 221549Z 17010KT 11/M09 A2991 RMK A01 T01071091  RH  024%=      5-min Rain = 0
KSB1 221550Z 16009KT 11/M09 A2991 RMK A01 T01091092  RH  024%=      5-min Rain = 0
KSB1 221551Z 16012KT 11/M09 A2991 RMK A01 T01121091  RH  023%=      5-min Rain = 0
KSB1 221552Z 17014KT 11/M09 A2991 RMK A01 T01111090  RH  023%=      5-min Rain = 0
KSB1 221553Z 16011KT 11/M09 A2991 RMK A01 T01081092  RH  024%=      5-min Rain = 0
KSB1 221554Z 16012KT 11/M09 A2991 RMK A01 T01071094  RH  023%=      5-min Rain = 0
KSB1 221555Z 17012KT 11/M09 A2991 RMK A01 T01081094  RH  023%=      5-min Rain = 0
KSB1 221556Z 16012KT 11/M09 A2991 RMK A01 T01091093  RH  023%=      5-min Rain = 0
KSB1 221557Z 16012KT 11/M09 A2991 RMK A01 T01111091  RH  023%=      5-min Rain = 0
KSB1 221558Z 16010KT 11/M09 A2991 RMK A01 T01101090  RH  024%=      5-min Rain = 0
KSB1 221559Z 16011KT 11/M09 A2991 RMK A01 T01111090  RH  023%=      5-min Rain = 0
KSB1 221600Z 16013KT 11/M09 A2991 RMK A01 T01121091  RH  023%=      5-min Rain = 0
KSB1 221601Z 18013KT 11/M09 A2991 RMK A01 T01131091  RH  023%=      5-min Rain = 0
KSB1 221602Z 17013KT 11/M09 A2991 RMK A01 T01121090  RH  023%=      5-min Rain = 0
KSB1 221603Z 17011KT 11/M09 A2991 RMK A01 T01111092  RH  023%=      5-min Rain = 0
KSB1 221604Z 17010G15KT 11/M09 A2991 RMK A01 T01101092  RH  023%=      5-min Rain = 0
KSB1 221605Z 17010KT 11/M09 A2991 RMK A01 T01111090  RH  023%=      5-min Rain = 0
KSB1 221606Z 17011KT 11/M09 A2991 RMK A01 T01111091  RH  023%=      5-min Rain = 0
KSB1 221607Z 16012KT 11/M09 A2991 RMK A01 T01121092  RH  023%=      5-min Rain = 0
KSB1 221608Z 16014KT 11/M09 A2991 RMK A01 T01121092  RH  023%=      5-min Rain = 0
KSB1 221609Z 17012KT 11/M09 A2991 RMK A01 T01131091  RH  023%=      5-min Rain = 0
KSB1 221610Z 17011KT 11/M09 A2991 RMK A01 T01131091  RH  023%=      5-min Rain = 0
KSB1 221611Z 17011KT 11/M09 A2991 RMK A01 T01131092  RH  023%=      5-min Rain = 0
KSB1 221612Z 17012KT 11/M09 A2991 RMK A01 T01131091  RH  023%=      5-min Rain = 0
KSB1 221613Z 16012KT 11/M09 A2991 RMK A01 T01141091  RH  023%=      5-min Rain = 0
KSB1 221614Z 17011KT 11/M09 A2991 RMK A01 T01141088  RH  023%=      5-min Rain = 0
KSB1 221615Z 17014KT 12/M09 A2991 RMK A01 T01161086  RH  023%=      5-min Rain = 0
KSB1 221616Z 17012G17KT 11/M09 A2991 RMK A01 T01141088  RH  023%=      5-min Rain = 0
KSB1 221617Z 17011KT 11/M09 A2991 RMK A01 T01131088  RH  024%=      5-min Rain = 0
KSB1 221618Z 17010KT 11/M09 A2991 RMK A01 T01131089  RH  023%=      5-min Rain = 0
KSB1 221619Z 18010KT 11/M09 A2991 RMK A01 T01131090  RH  023%=      5-min Rain = 0
KSB1 221620Z 17012KT 12/M09 A2991 RMK A01 T01151087  RH  023%=      5-min Rain = 0
KSB1 221621Z 18011KT 12/M09 A2991 RMK A01 T01151089  RH  023%=      5-min Rain = 0
KSB1 221622Z 17012KT 12/M09 A2991 RMK A01 T01161086  RH  023%=      5-min Rain = 0
KSB1 221623Z 17012KT 12/M09 A299 RMK A01 T01181085  RH  023%=      5-min Rain = 0
KSB1 221624Z 17014KT 12/M09 A299 RMK A01 T01191086  RH  023%=      5-min Rain = 0
KSB1 221625Z 16014KT 12/M09 A299 RMK A01 T01181086  RH  023%=      5-min Rain = 0
KSB1 221626Z 17016KT 12/M08 A299 RMK A01 T01171083  RH  024%=      5-min Rain = 0
KSB1 221627Z 17013KT 12/M08 A299 RMK A01 T01181083  RH  024%=      5-min Rain = 0
KSB1 221628Z 17014KT 12/M08 A299 RMK A01 T01171083  RH  024%=      5-min Rain = 0
KSB1 221629Z 17015KT 12/M08 A299 RMK A01 T01171080  RH  024%=      5-min Rain = 0
KSB1 221630Z 17013KT 12/M08 A299 RMK A01 T01171079  RH  025%=      5-min Rain = 0
KSB1 221631Z 17015KT 12/M08 A299 RMK A01 T01171079  RH  025%=      5-min Rain = 0
KSB1 221632Z 17014KT 12/M08 A299 RMK A01 T01161082  RH  024%=      5-min Rain = 0
KSB1 221633Z 17013KT 12/M08 A299 RMK A01 T01171082  RH  024%=      5-min Rain = 0
KSB1 221634Z 16014KT 12/M08 A299 RMK A01 T01171082  RH  024%=      5-min Rain = 0
KSB1 221635Z 17013KT 12/M08 A299 RMK A01 T01171082  RH  024%=      5-min Rain = 0
KSB1 221636Z 17014KT 12/M08 A299 RMK A01 T01181081  RH  024%=      5-min Rain = 0
KSB1 221637Z 16011KT 12/M09 A299 RMK A01 T01181085  RH  023%=      5-min Rain = 0
KSB1 221638Z 16012KT 12/M09 A299 RMK A01 T01181085  RH  023%=      5-min Rain = 0
KSB1 221639Z 16012KT 12/M09 A299 RMK A01 T01181085  RH  023%=      5-min Rain = 0
KSB1 221640Z 16012KT 12/M09 A299 RMK A01 T01191085  RH  023%=      5-min Rain = 0
KSB1 221641Z 16012KT 12/M09 A299 RMK A01 T01211087  RH  023%=      5-min Rain = 0
KSB1 221642Z 17012KT 12/M09 A299 RMK A01 T01211087  RH  022%=      5-min Rain = 0
KSB1 221643Z 18011KT 12/M09 A299 RMK A01 T01211087  RH  022%=      5-min Rain = 0
KSB1 221644Z 17010G17KT 12/M09 A299 RMK A01 T01201088  RH  023%=      5-min Rain = 0
KSB1 221645Z 17013KT 12/M09 A299 RMK A01 T01211085  RH  023%=      5-min Rain = 0
KSB1 221646Z 17013KT 12/M09 A299 RMK A01 T01231085  RH  023%=      5-min Rain = 0
KSB1 221647Z 16012KT 12/M09 A299 RMK A01 T01231085  RH  023%=      5-min Rain = 0
KSB1 221648Z 18009KT 12/M09 A299 RMK A01 T01221087  RH  022%=      5-min Rain = 0
KSB1 221649Z 18012KT 13/M08 A299 RMK A01 T01251083  RH  023%=      5-min Rain = 0
KSB1 221650Z 17011KT 13/M08 A299 RMK A01 T01251082  RH  023%=      5-min Rain = 0
KSB1 221651Z 17009KT 13/M08 A2989 RMK A01 T01251083  RH  023%=      5-min Rain = 0
KSB1 221652Z 19012G17KT 13/M08 A2989 RMK A01 T01271082  RH  023%=      5-min Rain = 0
KSB1 221653Z 18015KT 13/M08 A2989 RMK A01 T01281080  RH  023%=      5-min Rain = 0
KSB1 221654Z 18016KT 13/M08 A2989 RMK A01 T01281076  RH  023%=      5-min Rain = 0
KSB1 221655Z 20015KT 13/M08 A2989 RMK A01 T01261079  RH  023%=      5-min Rain = 0
KSB1 221656Z 19015KT 13/M08 A2989 RMK A01 T01251080  RH  023%=      5-min Rain = 0
KSB1 221657Z 18015KT 13/M08 A2989 RMK A01 T01271077  RH  023%=      5-min Rain = 0
KSB1 221658Z 19015KT 13/M08 A2989 RMK A01 T01271079  RH  023%=      5-min Rain = 0
KSB1 221659Z 18015KT 13/M08 A2989 RMK A01 T01261081  RH  023%=      5-min Rain = 0
KSB1 221700Z 19013KT 13/M08 A2989 RMK A01 T01271079  RH  023%=      5-min Rain = 0
KSB1 221701Z 18012KT 13/M08 A2989 RMK A01 T01301077  RH  023%=      5-min Rain = 0
KSB1 221702Z 18011KT 13/M08 A2989 RMK A01 T01321076  RH  023%=      5-min Rain = 0
KSB1 221703Z 19009KT 13/M08 A2989 RMK A01 T01321077  RH  023%=      5-min Rain = 0
KSB1 221704Z 20014KT 13/M08 A2989 RMK A01 T01341075  RH  023%=      5-min Rain = 0
KSB1 221705Z 20014KT 13/M08 A2989 RMK A01 T01331077  RH  023%=      5-min Rain = 0
KSB1 221706Z 18012KT 13/M08 A2989 RMK A01 T01311078  RH  023%=      5-min Rain = 0
KSB1 221707Z 18013KT 13/M08 A2989 RMK A01 T01331077  RH  023%=      5-min Rain = 0
KSB1 221708Z 17011KT 13/M08 A2989 RMK A01 T01331078  RH  022%=      5-min Rain = 0
KSB1 221709Z 16014KT 13/M08 A2989 RMK A01 T01331078  RH  022%=      5-min Rain = 0
KSB1 221710Z 16013KT 14/M08 A2988 RMK A01 T01351078  RH  022%=      5-min Rain = 0
KSB1 221711Z 17013KT 13/M08 A2988 RMK A01 T01331079  RH  022%=      5-min Rain = 0
KSB1 221712Z 17013KT 13/M08 A2988 RMK A01 T01331078  RH  022%=      5-min Rain = 0
KSB1 221713Z 18010KT 13/M08 A2988 RMK A01 T01341077  RH  022%=      5-min Rain = 0
KSB1 221714Z 17014KT 14/M08 A2988 RMK A01 T01351076  RH  022%=      5-min Rain = 0
KSB1 221715Z 16014KT 14/M08 A2988 RMK A01 T01361075  RH  022%=      5-min Rain = 0
KSB1 221716Z 16014KT 14/M07 A2988 RMK A01 T01371073  RH  023%=      5-min Rain = 0
KSB1 221717Z 17015KT 14/M07 A2988 RMK A01 T01381072  RH  023%=      5-min Rain = 0
KSB1 221718Z 18014KT 14/M07 A2988 RMK A01 T01351073  RH  023%=      5-min Rain = 0
KSB1 221719Z 16014KT 14/M07 A2988 RMK A01 T01361071  RH  023%=      5-min Rain = 0
KSB1 221720Z 16015KT 14/M07 A2988 RMK A01 T01351072  RH  023%=      5-min Rain = 0
KSB1 221721Z 18014KT 13/M07 A2988 RMK A01 T01341071  RH  023%=      5-min Rain = 0
KSB1 221722Z 17012G17KT 13/M07 A2988 RMK A01 T01331070  RH  024%=      5-min Rain = 0
KSB1 221723Z 17015KT 14/M07 A2988 RMK A01 T01371067  RH  024%=      5-min Rain = 0
KSB1 221724Z 18014KT 14/M07 A2988 RMK A01 T01371068  RH  023%=      5-min Rain = 0
KSB1 221725Z 18014KT 14/M07 A2988 RMK A01 T01351069  RH  024%=      5-min Rain = 0
KSB1 221726Z 17013KT 14/M07 A2988 RMK A01 T01351066  RH  024%=      5-min Rain = 0
KSB1 221727Z 17013KT 14/M07 A2988 RMK A01 T01361065  RH  024%=      5-min Rain = 0
KSB1 221728Z 18012KT 14/M07 A2988 RMK A01 T01361066  RH  024%=      5-min Rain = 0
KSB1 221729Z 18015KT 14/M06 A2988 RMK A01 T01391063  RH  024%=      5-min Rain = 0
KSB1 221730Z 18012KT 14/M06 A2988 RMK A01 T01391064  RH  024%=      5-min Rain = 0
KSB1 221731Z 18012KT 14/M06 A2988 RMK A01 T01401063  RH  024%=      5-min Rain = 0
KSB1 221732Z 19012KT 14/M06 A2988 RMK A01 T01421062  RH  024%=      5-min Rain = 0
KSB1 221733Z 19014KT 14/M06 A2988 RMK A01 T01431062  RH  024%=      5-min Rain = 0
KSB1 221734Z 19014KT 14/M06 A2988 RMK A01 T01421062  RH  024%=      5-min Rain = 0
KSB1 221735Z 19011KT 14/M06 A2988 RMK A01 T01421062  RH  024%=      5-min Rain = 0
KSB1 221736Z 18012KT 14/M06 A2988 RMK A01 T01431061  RH  024%=      5-min Rain = 0
KSB1 221737Z 17013KT 14/M06 A2988 RMK A01 T01421063  RH  024%=      5-min Rain = 0
KSB1 221738Z 17012KT 14/M06 A2988 RMK A01 T01421061  RH  024%=      5-min Rain = 0
KSB1 221739Z 18013KT 14/M06 A2988 RMK A01 T01441060  RH  024%=      5-min Rain = 0
KSB1 221740Z 18013G19KT 15/M06 A2988 RMK A01 T01461061  RH  023%=      5-min Rain = 0
KSB1 221741Z 17013KT 15/M06 A2988 RMK A01 T01471061  RH  023%=      5-min Rain = 0
KSB1 221742Z 16015KT 15/M06 A2988 RMK A01 T01461061  RH  023%=      5-min Rain = 0
KSB1 221743Z 16018KT 15/M06 A2987 RMK A01 T01451061  RH  024%=      5-min Rain = 0
KSB1 221744Z 16017KT 14/M06 A2988 RMK A01 T01431062  RH  024%=      5-min Rain = 0
KSB1 221745Z 16014KT 14/M06 A2988 RMK A01 T01421061  RH  024%=      5-min Rain = 0
KSB1 221746Z 18015KT 14/M06 A2987 RMK A01 T01421061  RH  024%=      5-min Rain = 0
KSB1 221747Z 16016G21KT 14/M06 A2987 RMK A01 T01431060  RH  024%=      5-min Rain = 0
KSB1 221748Z 17018KT 15/M06 A2987 RMK A01 T01451059  RH  024%=      5-min Rain = 0
KSB1 221749Z 16016KT 14/M06 A2987 RMK A01 T01441059  RH  024%=      5-min Rain = 0
KSB1 221750Z 16016KT 15/M06 A2987 RMK A01 T01451058  RH  024%=      5-min Rain = 0
KSB1 221751Z 17015KT 15/M06 A2987 RMK A01 T01461057  RH  024%=      5-min Rain = 0
KSB1 221752Z 17016KT 15/M06 A2987 RMK A01 T01451057  RH  024%=      5-min Rain = 0
KSB1 221753Z 16015KT 14/M06 A2987 RMK A01 T01441058  RH  024%=      5-min Rain = 0
KSB1 221754Z 16015KT 15/M06 A2987 RMK A01 T01461055  RH  024%=      5-min Rain = 0
KSB1 221755Z 15015KT 15/M06 A2987 RMK A01 T01491055  RH  024%=      5-min Rain = 0
KSB1 221756Z 16015KT 15/M06 A2987 RMK A01 T01491056  RH  024%=      5-min Rain = 0
KSB1 221757Z 15015KT 15/M06 A2987 RMK A01 T01471057  RH  024%=      5-min Rain = 0
KSB1 221758Z 17017KT 15/M06 A2987 RMK A01 T01471056  RH  024%=      5-min Rain = 0
KSB1 221759Z 17014KT 15/M06 A2987 RMK A01 T01461057  RH  024%=      5-min Rain = 0
KSB1 221800Z 18014KT 15/M05 A2987 RMK A01 T01491054  RH  024%=      5-min Rain = 0
KSB1 221801Z 17015KT 15/M06 A2987 RMK A01 T01501055  RH  024%=      5-min Rain = 0
KSB1 221802Z 17013KT 15/M05 A2987 RMK A01 T01511054  RH  024%=      5-min Rain = 0
KSB1 221803Z 17015KT 15/M06 A2987 RMK A01 T01531055  RH  023%=      5-min Rain = 0
KSB1 221804Z 17015KT 15/M06 A2987 RMK A01 T01511059  RH  023%=      5-min Rain = 0
KSB1 221805Z 16016KT 15/M06 A2987 RMK A01 T01471060  RH  023%=      5-min Rain = 0
KSB1 221806Z 16017KT 15/M06 A2987 RMK A01 T01461059  RH  024%=      5-min Rain = 0
KSB1 221807Z 16016KT 15/M06 A2987 RMK A01 T01451058  RH  024%=      5-min Rain = 0
KSB1 221808Z 18014KT 15/M06 A2987 RMK A01 T01461058  RH  024%=      5-min Rain = 0
KSB1 221809Z 17014KT 15/M06 A2987 RMK A01 T01451059  RH  024%=      5-min Rain = 0
KSB1 221810Z 18012KT 15/M06 A2987 RMK A01 T01461058  RH  024%=      5-min Rain = 0
KSB1 221811Z 16014G19KT 15/M06 A2987 RMK A01 T01461059  RH  024%=      5-min Rain = 0
KSB1 221812Z 17015KT 15/M06 A2987 RMK A01 T01461059  RH  024%=      5-min Rain = 0
KSB1 221813Z 18013G18KT 15/M06 A2987 RMK A01 T01451059  RH  024%=      5-min Rain = 0
KSB1 221814Z 17015KT 15/M06 A2987 RMK A01 T01471058  RH  024%=      5-min Rain = 0
KSB1 221815Z 17014KT 15/M06 A2987 RMK A01 T01461059  RH  024%=      5-min Rain = 0
KSB1 221816Z 16014KT 15/M06 A2987 RMK A01 T01461059  RH  024%=      5-min Rain = 0
KSB1 221817Z 16015KT 15/M06 A2987 RMK A01 T01461058  RH  024%=      5-min Rain = 0
KSB1 221818Z 18014KT 15/M06 A2987 RMK A01 T01481057  RH  024%=      5-min Rain = 0
KSB1 221819Z 17015KT 15/M06 A2987 RMK A01 T01481058  RH  024%=      5-min Rain = 0
KSB1 221820Z 15016KT 15/M06 A2987 RMK A01 T01481058  RH  024%=      5-min Rain = 0
KSB1 221821Z 15014KT 15/M06 A2987 RMK A01 T01491057  RH  024%=      5-min Rain = 0
KSB1 221822Z 15012KT 15/M06 A2987 RMK A01 T01491058  RH  023%=      5-min Rain = 0
KSB1 221823Z 15017KT 15/M06 A2987 RMK A01 T01481059  RH  023%=      5-min Rain = 0
KSB1 221824Z 15012KT 15/M06 A2987 RMK A01 T01481060  RH  023%=      5-min Rain = 0
KSB1 221825Z 17013KT 15/M06 A2987 RMK A01 T01471059  RH  023%=      5-min Rain = 0
KSB1 221826Z 17011KT 15/M06 A2987 RMK A01 T01461060  RH  023%=      5-min Rain = 0
KSB1 221827Z 18013KT 15/M06 A2987 RMK A01 T01461059  RH  024%=      5-min Rain = 0
KSB1 221828Z 16009KT 15/M06 A2987 RMK A01 T01481059  RH  023%=      5-min Rain = 0
KSB1 221829Z 19009KT 15/M06 A2987 RMK A01 T01481058  RH  024%=      5-min Rain = 0
KSB1 221830Z 16006KT 15/M06 A2987 RMK A01 T01521056  RH  023%=      5-min Rain = 0
KSB1 221831Z 18011G18KT 15/M06 A2987 RMK A01 T01541056  RH  023%=      5-min Rain = 0
KSB1 221832Z 16015KT 15/M06 A2986 RMK A01 T01511061  RH  023%=      5-min Rain = 0
KSB1 221833Z 16015KT 15/M06 A2986 RMK A01 T01501060  RH  023%=      5-min Rain = 0
KSB1 221834Z 16016KT 15/M06 A2986 RMK A01 T01501060  RH  023%=      5-min Rain = 0
KSB1 221835Z 18015KT 15/M06 A2986 RMK A01 T01491061  RH  023%=      5-min Rain = 0
KSB1 221836Z 18011KT 15/M06 A2986 RMK A01 T01481060  RH  023%=      5-min Rain = 0
KSB1 221837Z 16011KT 15/M06 A2986 RMK A01 T01481060  RH  023%=      5-min Rain = 0
KSB1 221838Z 15013KT 15/M06 A2986 RMK A01 T01521058  RH  023%=      5-min Rain = 0
KSB1 221839Z 15012KT 15/M06 A2986 RMK A01 T01541059  RH  023%=      5-min Rain = 0
KSB1 221840Z 16011KT 16/M06 A2986 RMK A01 T01551059  RH  022%=      5-min Rain = 0
KSB1 221841Z 16013G18KT 16/M06 A2985 RMK A01 T01571059  RH  022%=      5-min Rain = 0
KSB1 221842Z 17014KT 16/M06 A2985 RMK A01 T01561060  RH  022%=      5-min Rain = 0
KSB1 221843Z 18013KT 16/M06 A2985 RMK A01 T01551061  RH  022%=      5-min Rain = 0
KSB1 221844Z 18010KT 15/M06 A2985 RMK A01 T01521062  RH  022%=      5-min Rain = 0
KSB1 221845Z 17011G18KT 15/M06 A2985 RMK A01 T01501062  RH  023%=      5-min Rain = 0
KSB1 221846Z 16016KT 15/M06 A2985 RMK A01 T01531059  RH  023%=      5-min Rain = 0
KSB1 221847Z 15015KT 16/M06 A2985 RMK A01 T01571058  RH  022%=      5-min Rain = 0
KSB1 221848Z 15013KT 16/M06 A2985 RMK A01 T01601059  RH  022%=      5-min Rain = 0
KSB1 221849Z 15013KT 16/M06 A2985 RMK A01 T01591061  RH  021%=      5-min Rain = 0
KSB1 221850Z 15012KT 16/M06 A2985 RMK A01 T01581061  RH  022%=      5-min Rain = 0
KSB1 221851Z 15014KT 16/M06 A2985 RMK A01 T01611060  RH  021%=      5-min Rain = 0
KSB1 221852Z 18015KT 16/M06 A2984 RMK A01 T01621061  RH  021%=      5-min Rain = 0
KSB1 221853Z 17014KT 16/M06 A2984 RMK A01 T01581062  RH  021%=      5-min Rain = 0
KSB1 221854Z 16016KT 16/M06 A2984 RMK A01 T01571061  RH  022%=      5-min Rain = 0
KSB1 221855Z 17015KT 16/M06 A2984 RMK A01 T01581060  RH  022%=      5-min Rain = 0
KSB1 221856Z 16012KT 16/M06 A2984 RMK A01 T01571060  RH  022%=      5-min Rain = 0
KSB1 221857Z 18014KT 16/M06 A2984 RMK A01 T01581059  RH  022%=      5-min Rain = 0
KSB1 221858Z 19014KT 16/M06 A2984 RMK A01 T01571060  RH  022%=      5-min Rain = 0
KSB1 221859Z 20015KT 16/M06 A2984 RMK A01 T01561059  RH  022%=      5-min Rain = 0
KSB1 221900Z 20010KT 15/M06 A2984 RMK A01 T01531061  RH  022%=      5-min Rain = 0
KSB1 221901Z 16010KT 15/M06 A2984 RMK A01 T01531059  RH  023%=      5-min Rain = 0
KSB1 221902Z 16011KT 16/M06 A2984 RMK A01 T01571056  RH  023%=      5-min Rain = 0
KSB1 221903Z 16009G15KT 16/M06 A2983 RMK A01 T01591056  RH  022%=      5-min Rain = 0
KSB1 221904Z 18014KT 16/M06 A2983 RMK A01 T01631055  RH  022%=      5-min Rain = 0
KSB1 221905Z 17015G20KT 17/M06 A2983 RMK A01 T01671056  RH  021%=      5-min Rain = 0
KSB1 221906Z 16016KT 17/M06 A2983 RMK A01 T01651058  RH  021%=      5-min Rain = 0
KSB1 221907Z 16014KT 16/M06 A2983 RMK A01 T01641059  RH  021%=      5-min Rain = 0
KSB1 221908Z 16014KT 17/M06 A2983 RMK A01 T01661057  RH  021%=      5-min Rain = 0
KSB1 221909Z 16017KT 17/M06 A2983 RMK A01 T01671056  RH  021%=      5-min Rain = 0
KSB1 221910Z 15013KT 17/M06 A2983 RMK A01 T01681057  RH  021%=      5-min Rain = 0
KSB1 221911Z 15011KT 17/M05 A2983 RMK A01 T01701054  RH  021%=      5-min Rain = 0
KSB1 221912Z 16010KT 17/M06 A2983 RMK A01 T01721056  RH  021%=      5-min Rain = 0
KSB1 221913Z 19014G21KT 17/M06 A2982 RMK A01 T01681058  RH  021%=      5-min Rain = 0
KSB1 221914Z 19021KT 17/M06 A2982 RMK A01 T01671058  RH  021%=      5-min Rain = 0
KSB1 221915Z 19015G20KT 17/M06 A2982 RMK A01 T01661061  RH  021%=      5-min Rain = 0
KSB1 221916Z 18015KT 17/M06 A2982 RMK A01 T01661058  RH  021%=      5-min Rain = 0
KSB1 221917Z 19015KT 17/M06 A2982 RMK A01 T01671059  RH  021%=      5-min Rain = 0
KSB1 221918Z 19014KT 17/M06 A2982 RMK A01 T01671060  RH  021%=      5-min Rain = 0
KSB1 221919Z 17011KT 17/M06 A2982 RMK A01 T01651059  RH  021%=      5-min Rain = 0
KSB1 221920Z 20010KT 17/M06 A2982 RMK A01 T01681057  RH  021%=      5-min Rain = 0
KSB1 221921Z 19009KT 17/M06 A2982 RMK A01 T01701056  RH  021%=      5-min Rain = 0
KSB1 221922Z 19016G23KT 17/M06 A2981 RMK A01 T01701059  RH  020%=      5-min Rain = 0
KSB1 221923Z 21019G24KT 17/M07 A2981 RMK A01 T01711065  RH  019%=      5-min Rain = 0
KSB1 221924Z 22020KT 17/M07 A2981 RMK A01 T01741066  RH  019%=      5-min Rain = 0
KSB1 221925Z 22021G26KT 17/M07 A2981 RMK A01 T01731067  RH  019%=      5-min Rain = 0
KSB1 221926Z 22020KT 17/M07 A2981 RMK A01 T01711065  RH  019%=      5-min Rain = 0
KSB1 221927Z 22018KT 17/M06 A298 RMK A01 T01701064  RH  020%=      5-min Rain = 0
KSB1 221928Z 22018KT 17/M06 A298 RMK A01 T01701063  RH  020%=      5-min Rain = 0
KSB1 221929Z 23017KT 17/M06 A2981 RMK A01 T01721061  RH  020%=      5-min Rain = 0
KSB1 221930Z 22016KT 17/M06 A298 RMK A01 T01731062  RH  019%=      5-min Rain = 0
KSB1 221931Z 20013G18KT 17/M06 A2981 RMK A01 T01731062  RH  020%=      5-min Rain = 0
KSB1 221932Z 19017G26KT 17/M06 A298 RMK A01 T01741061  RH  019%=      5-min Rain = 0
KSB1 221933Z 19024KT 17/M06 A298 RMK A01 T01741063  RH  019%=      5-min Rain = 0
KSB1 221934Z 18019KT 17/M06 A298 RMK A01 T01741061  RH  020%=      5-min Rain = 0
KSB1 221935Z 18017KT 18/M06 A298 RMK A01 T01751062  RH  019%=      5-min Rain = 0
KSB1 221936Z 21016KT 17/M06 A298 RMK A01 T01741061  RH  019%=      5-min Rain = 0
KSB1 221937Z 20016KT 17/M06 A298 RMK A01 T01721062  RH  020%=      5-min Rain = 0
KSB1 221938Z 20017G22KT 17/M06 A298 RMK A01 T01721061  RH  020%=      5-min Rain = 0
KSB1 221939Z 18018KT 17/M06 A298 RMK A01 T01721062  RH  020%=      5-min Rain = 0
KSB1 221940Z 18017G22KT 18/M06 A298 RMK A01 T01761060  RH  019%=      5-min Rain = 0
KSB1 221941Z 20021KT 18/M06 A2979 RMK A01 T01791061  RH  019%=      5-min Rain = 0
KSB1 221942Z 20024KT 18/M06 A2979 RMK A01 T01791061  RH  019%=      5-min Rain = 0
KSB1 221943Z 20022G27KT 18/M06 A2979 RMK A01 T01791062  RH  019%=      5-min Rain = 0
KSB1 221944Z 20020KT 18/M06 A298 RMK A01 T01781064  RH  019%=      5-min Rain = 0
KSB1 221945Z 20017KT 18/M06 A298 RMK A01 T01771064  RH  019%=      5-min Rain = 0
KSB1 221946Z 20018KT 18/M07 A298 RMK A01 T01751065  RH  019%=      5-min Rain = 0
KSB1 221947Z 22016KT 17/M06 A298 RMK A01 T01731064  RH  019%=      5-min Rain = 0
KSB1 221948Z 22015KT 17/M06 A298 RMK A01 T01721064  RH  019%=      5-min Rain = 0
KSB1 221949Z 22014KT 17/M06 A2979 RMK A01 T01691064  RH  020%=      5-min Rain = 0
KSB1 221950Z 21015KT 17/M06 A2979 RMK A01 T01701062  RH  020%=      5-min Rain = 0
KSB1 221951Z 22019G25KT 17/M06 A2979 RMK A01 T01711062  RH  020%=      5-min Rain = 0
KSB1 221952Z 22017KT 17/M06 A2979 RMK A01 T01721061  RH  020%=      5-min Rain = 0
KSB1 221953Z 21014G21KT 17/M06 A2979 RMK A01 T01731060  RH  020%=      5-min Rain = 0
KSB1 221954Z 21017G23KT 18/M06 A2979 RMK A01 T01761059  RH  020%=      5-min Rain = 0
KSB1 221955Z 21020KT 18/M06 A2979 RMK A01 T01751059  RH  020%=      5-min Rain = 0
KSB1 221956Z 19023G29KT 17/M06 A2978 RMK A01 T01741060  RH  020%=      5-min Rain = 0
KSB1 221957Z 19023KT 17/M06 A2979 RMK A01 T01731062  RH  020%=      5-min Rain = 0
KSB1 221958Z 19022KT 17/M06 A2978 RMK A01 T01721062  RH  020%=      5-min Rain = 0
KSB1 221959Z 19022KT 17/M06 A2979 RMK A01 T01731060  RH  020%=      5-min Rain = 0
KSB1 222000Z 19023G28KT 17/M06 A2978 RMK A01 T01741059  RH  020%=      5-min Rain = 0
KSB1 222001Z 18023KT 17/M06 A2978 RMK A01 T01731061  RH  020%=      5-min Rain = 0
KSB1 222002Z 19017KT 17/M06 A2979 RMK A01 T01661064  RH  020%=      5-min Rain = 0
KSB1 222003Z 20016KT 16/M06 A2979 RMK A01 T01641062  RH  021%=      5-min Rain = 0
KSB1 222004Z 21017KT 17/M06 A2978 RMK A01 T01651061  RH  021%=      5-min Rain = 0
KSB1 222005Z 22018KT 17/M06 A2978 RMK A01 T01671059  RH  021%=      5-min Rain = 0
KSB1 222006Z 21015KT 17/M06 A2978 RMK A01 T01691059  RH  021%=      5-min Rain = 0
KSB1 222007Z 21014KT 17/M06 A2978 RMK A01 T01711058  RH  020%=      5-min Rain = 0
KSB1 222008Z 19016G22KT 17/M06 A2978 RMK A01 T01711059  RH  020%=      5-min Rain = 0
KSB1 222009Z 19016KT 17/M06 A2978 RMK A01 T01711059  RH  020%=      5-min Rain = 0
KSB1 222010Z 18017KT 17/M06 A2978 RMK A01 T01741057  RH  020%=      5-min Rain = 0
KSB1 222011Z 17021G26KT 18/M06 A2977 RMK A01 T01771057  RH  020%=      5-min Rain = 0
KSB1 222012Z 18018G25KT 18/M06 A2977 RMK A01 T01771058  RH  020%=      5-min Rain = 0
KSB1 222013Z 18020KT 18/M06 A2977 RMK A01 T01781057  RH  020%=      5-min Rain = 0
KSB1 222014Z 18018G23KT 18/M06 A2977 RMK A01 T01781057  RH  020%=      5-min Rain = 0
KSB1 222015Z 18017KT 18/M06 A2977 RMK A01 T01791057  RH  019%=      5-min Rain = 0
KSB1 222016Z 17019KT 18/M06 A2977 RMK A01 T01781058  RH  019%=      5-min Rain = 0
KSB1 222017Z 16020KT 18/M06 A2977 RMK A01 T01781059  RH  019%=      5-min Rain = 0
KSB1 222018Z 18017G23KT 18/M06 A2977 RMK A01 T01801058  RH  019%=      5-min Rain = 0
KSB1 222019Z 20015KT 18/M06 A2977 RMK A01 T01801058  RH  019%=      5-min Rain = 0
KSB1 222020Z 20019KT 18/M06 A2977 RMK A01 T01801058  RH  019%=      5-min Rain = 0
KSB1 222021Z 21020G26KT 18/M06 A2976 RMK A01 T01801059  RH  019%=      5-min Rain = 0
KSB1 222022Z 21019KT 18/M06 A2976 RMK A01 T01781059  RH  019%=      5-min Rain = 0
KSB1 222023Z 20016KT 18/M06 A2976 RMK A01 T01791057  RH  020%=      5-min Rain = 0
KSB1 222024Z 18019G26KT 18/M06 A2976 RMK A01 T01791058  RH  019%=      5-min Rain = 0
KSB1 222025Z 20021G28KT 18/M06 A2975 RMK A01 T01801057  RH  019%=      5-min Rain = 0
KSB1 222026Z 20019KT 18/M06 A2976 RMK A01 T01821056  RH  019%=      5-min Rain = 0
KSB1 222027Z 20016KT 18/M06 A2976 RMK A01 T01821057  RH  019%=      5-min Rain = 0
KSB1 222028Z 19021G27KT 19/M05 A2975 RMK A01 T01851054  RH  019%=      5-min Rain = 0
KSB1 222029Z 19021G28KT 18/M06 A2976 RMK A01 T01831056  RH  019%=      5-min Rain = 0
KSB1 222030Z 19019KT 18/M06 A2976 RMK A01 T01801056  RH  020%=      5-min Rain = 0
KSB1 222031Z 20021G27KT 18/M06 A2975 RMK A01 T01811055  RH  020%=      5-min Rain = 0
KSB1 222032Z 20019G25KT 18/M06 A2975 RMK A01 T01821055  RH  019%=      5-min Rain = 0
KSB1 222033Z 20021KT 18/M06 A2975 RMK A01 T01841055  RH  019%=      5-min Rain = 0
KSB1 222034Z 19020G26KT 18/M06 A2975 RMK A01 T01821055  RH  019%=      5-min Rain = 0
KSB1 222035Z 20024G30KT 18/M06 A2975 RMK A01 T01801056  RH  020%=      5-min Rain = 0
KSB1 222036Z 21019KT 18/M06 A2976 RMK A01 T01781056  RH  020%=      5-min Rain = 0
KSB1 222037Z 21017KT 18/M06 A2976 RMK A01 T01791055  RH  020%=      5-min Rain = 0
KSB1 222038Z 22021KT 18/M06 A2975 RMK A01 T01791055  RH  020%=      5-min Rain = 0
KSB1 222039Z 22019KT 18/M06 A2975 RMK A01 T01771055  RH  020%=      5-min Rain = 0
KSB1 222040Z 20021KT 18/M05 A2975 RMK A01 T01751054  RH  020%=      5-min Rain = 0
KSB1 222041Z 19017KT 17/M05 A2975 RMK A01 T01741054  RH  021%=      5-min Rain = 0
KSB1 222042Z 19014KT 17/M05 A2976 RMK A01 T01721054  RH  021%=      5-min Rain = 0
KSB1 222043Z 19013KT 17/M05 A2976 RMK A01 T01721053  RH  021%=      5-min Rain = 0
KSB1 222044Z 18012KT 18/M05 A2975 RMK A01 T01751053  RH  021%=      5-min Rain = 0
KSB1 222045Z 18016KT 18/M05 A2975 RMK A01 T01781052  RH  020%=      5-min Rain = 0
KSB1 222046Z 19019G24KT 18/M05 A2975 RMK A01 T01791053  RH  020%=      5-min Rain = 0
KSB1 222047Z 18019G24KT 18/M05 A2975 RMK A01 T01781054  RH  020%=      5-min Rain = 0
KSB1 222048Z 18019KT 18/M05 A2975 RMK A01 T01781053  RH  020%=      5-min Rain = 0
KSB1 222049Z 18019KT 18/M05 A2975 RMK A01 T01791052  RH  020%=      5-min Rain = 0
KSB1 222050Z 19018KT 18/M05 A2975 RMK A01 T01791052  RH  020%=      5-min Rain = 0
KSB1 222051Z 19018KT 18/M05 A2975 RMK A01 T01771053  RH  020%=      5-min Rain = 0
KSB1 222052Z 19017KT 18/M05 A2974 RMK A01 T01791051  RH  020%=      5-min Rain = 0
KSB1 222053Z 18017KT 18/M05 A2974 RMK A01 T01821051  RH  020%=      5-min Rain = 0
KSB1 222054Z 20018KT 18/M05 A2974 RMK A01 T01811053  RH  020%=      5-min Rain = 0
KSB1 222055Z 20015KT 18/M05 A2974 RMK A01 T01801053  RH  020%=      5-min Rain = 0
KSB1 222056Z 20015KT 18/M05 A2974 RMK A01 T01801052  RH  020%=      5-min Rain = 0
KSB1 222057Z 20013KT 18/M05 A2974 RMK A01 T01801053  RH  020%=      5-min Rain = 0
KSB1 222058Z 21015KT 18/M05 A2974 RMK A01 T01801053  RH  020%=      5-min Rain = 0
KSB1 222059Z 22017KT 18/M05 A2974 RMK A01 T01791054  RH  020%=      5-min Rain = 0
KSB1 222100Z 21017KT 18/M05 A2974 RMK A01 T01791054  RH  020%=      5-min Rain = 0
KSB1 222101Z 20015KT 18/M05 A2974 RMK A01 T01831052  RH  020%=      5-min Rain = 0
KSB1 222102Z 21018G26KT 19/M05 A2974 RMK A01 T01881050  RH  019%=      5-min Rain = 0
KSB1 222103Z 21021KT 19/M05 A2973 RMK A01 T01881054  RH  019%=      5-min Rain = 0
KSB1 222104Z 22015KT 18/M06 A2974 RMK A01 T01821056  RH  019%=      5-min Rain = 0
KSB1 222105Z 21016KT 18/M06 A2973 RMK A01 T01801055  RH  020%=      5-min Rain = 0
KSB1 222106Z 22015KT 18/M06 A2973 RMK A01 T01801055  RH  020%=      5-min Rain = 0
KSB1 222107Z 22015KT 18/M05 A2973 RMK A01 T01811054  RH  020%=      5-min Rain = 0
KSB1 222108Z 21013KT 18/M06 A2973 RMK A01 T01811055  RH  020%=      5-min Rain = 0
KSB1 222109Z 22017KT 18/M05 A2973 RMK A01 T01811053  RH  020%=      5-min Rain = 0
KSB1 222110Z 21016KT 18/M05 A2973 RMK A01 T01831053  RH  020%=      5-min Rain = 0
KSB1 222111Z 21016G23KT 18/M05 A2973 RMK A01 T01841052  RH  020%=      5-min Rain = 0
KSB1 222112Z 20021KT 19/M05 A2973 RMK A01 T01851051  RH  020%=      5-min Rain = 0
KSB1 222113Z 19018KT 19/M05 A2973 RMK A01 T01861051  RH  020%=      5-min Rain = 0
KSB1 222114Z 18022G27KT 19/M05 A2972 RMK A01 T01881050  RH  020%=      5-min Rain = 0
KSB1 222115Z 18024KT 19/M05 A2973 RMK A01 T01881051  RH  019%=      5-min Rain = 0
KSB1 222116Z 18019G24KT 19/M05 A2973 RMK A01 T01851052  RH  019%=      5-min Rain = 0
KSB1 222117Z 19016KT 18/M05 A2973 RMK A01 T01841051  RH  020%=      5-min Rain = 0
KSB1 222118Z 20015KT 19/M05 A2973 RMK A01 T01851050  RH  020%=      5-min Rain = 0
KSB1 222119Z 21019G25KT 19/M05 A2972 RMK A01 T01861050  RH  020%=      5-min Rain = 0
KSB1 222120Z 19018KT 19/M05 A2972 RMK A01 T01881049  RH  020%=      5-min Rain = 0
KSB1 222121Z 19015KT 19/M05 A2972 RMK A01 T01891050  RH  019%=      5-min Rain = 0
KSB1 222122Z 19017KT 19/M05 A2972 RMK A01 T01871051  RH  019%=      5-min Rain = 0
KSB1 222123Z 18016KT 19/M05 A2972 RMK A01 T01861051  RH  020%=      5-min Rain = 0
KSB1 222124Z 20015KT 19/M05 A2972 RMK A01 T01851052  RH  020%=      5-min Rain = 0
KSB1 222125Z 20015KT 18/M05 A2972 RMK A01 T01841051  RH  020%=      5-min Rain = 0
KSB1 222126Z 20016KT 18/M05 A2972 RMK A01 T01841050  RH  020%=      5-min Rain = 0
KSB1 222127Z 18016G21KT 18/M05 A2972 RMK A01 T01841050  RH  020%=      5-min Rain = 0
KSB1 222128Z 19015KT 19/M05 A2972 RMK A01 T01851051  RH  020%=      5-min Rain = 0
KSB1 222129Z 18016KT 19/M05 A2972 RMK A01 T01861050  RH  020%=      5-min Rain = 0
KSB1 222130Z 18022G27KT 19/M05 A2971 RMK A01 T01891049  RH  019%=      5-min Rain = 0
KSB1 222131Z 18018G24KT 19/M05 A2971 RMK A01 T01881050  RH  019%=      5-min Rain = 0
KSB1 222132Z 20017KT 19/M05 A2971 RMK A01 T01891049  RH  019%=      5-min Rain = 0
KSB1 222133Z 19018KT 19/M05 A2971 RMK A01 T01901049  RH  019%=      5-min Rain = 0
KSB1 222134Z 19016KT 19/M05 A2971 RMK A01 T01881051  RH  019%=      5-min Rain = 0
KSB1 222135Z 19012KT 19/M05 A2971 RMK A01 T01871049  RH  020%=      5-min Rain = 0
KSB1 222136Z 18013KT 19/M05 A2971 RMK A01 T01871050  RH  020%=      5-min Rain = 0
KSB1 222137Z 18011KT 19/M05 A2971 RMK A01 T01851051  RH  020%=      5-min Rain = 0
KSB1 222138Z 20011KT 18/M05 A2971 RMK A01 T01841051  RH  020%=      5-min Rain = 0
KSB1 222139Z 18016G21KT 18/M05 A2971 RMK A01 T01841050  RH  020%=      5-min Rain = 0
KSB1 222140Z 19016KT 18/M05 A2971 RMK A01 T01831051  RH  020%=      5-min Rain = 0
KSB1 222141Z 19014KT 18/M05 A2971 RMK A01 T01821051  RH  020%=      5-min Rain = 0
KSB1 222142Z 19016G23KT 18/M05 A2971 RMK A01 T01811051  RH  020%=      5-min Rain = 0
KSB1 222143Z 19018G25KT 18/M05 A297 RMK A01 T01801051  RH  020%=      5-min Rain = 0
KSB1 222144Z 19015KT 18/M05 A2971 RMK A01 T01801050  RH  020%=      5-min Rain = 0
KSB1 222145Z 18014KT 18/M05 A297 RMK A01 T01801050  RH  020%=      5-min Rain = 0
KSB1 222146Z 18012KT 18/M05 A297 RMK A01 T01801050  RH  020%=      5-min Rain = 0
KSB1 222147Z 16012G19KT 18/M05 A297 RMK A01 T01801050  RH  020%=      5-min Rain = 0
KSB1 222148Z 17015KT 18/M05 A297 RMK A01 T01811050  RH  020%=      5-min Rain = 0
KSB1 222149Z 17013KT 18/M05 A2971 RMK A01 T01811051  RH  020%=      5-min Rain = 0
KSB1 222150Z 17015KT 18/M05 A297 RMK A01 T01791052  RH  020%=      5-min Rain = 0
KSB1 222151Z 16012KT 18/M05 A297 RMK A01 T01781051  RH  021%=      5-min Rain = 0
KSB1 222152Z 17011KT 18/M05 A297 RMK A01 T01781051  RH  021%=      5-min Rain = 0
KSB1 222153Z 17015G20KT 18/M05 A297 RMK A01 T01791050  RH  021%=      5-min Rain = 0
KSB1 222154Z 18019KT 18/M05 A297 RMK A01 T01801050  RH  020%=      5-min Rain = 0
KSB1 222155Z 17015KT 18/M05 A297 RMK A01 T01781051  RH  020%=      5-min Rain = 0
KSB1 222156Z 16018KT 18/M05 A2969 RMK A01 T01771052  RH  021%=      5-min Rain = 0
KSB1 222157Z 17013KT 18/M05 A2969 RMK A01 T01771052  RH  021%=      5-min Rain = 0
KSB1 222158Z 16013KT 18/M05 A2969 RMK A01 T01761052  RH  021%=      5-min Rain = 0
KSB1 222159Z 18017KT 18/M05 A2969 RMK A01 T01771051  RH  021%=      5-min Rain = 0
KSB1 222200Z 19014KT 18/M05 A2969 RMK A01 T01781051  RH  021%=      5-min Rain = 0
KSB1 222201Z 18012KT 18/M05 A2969 RMK A01 T01781051  RH  021%=      5-min Rain = 0
KSB1 222202Z 18013KT 18/M05 A2969 RMK A01 T01781051  RH  020%=      5-min Rain = 0
KSB1 222203Z 17010KT 18/M05 A2969 RMK A01 T01781052  RH  020%=      5-min Rain = 0
KSB1 222204Z 18010KT 18/M05 A2969 RMK A01 T01781051  RH  020%=      5-min Rain = 0
KSB1 222205Z 17011KT 18/M05 A2969 RMK A01 T01781051  RH  020%=      5-min Rain = 0
KSB1 222206Z 17016KT 18/M05 A2969 RMK A01 T01781051  RH  020%=      5-min Rain = 0
KSB1 222207Z 18015G20KT 18/M05 A2969 RMK A01 T01781051  RH  021%=      5-min Rain = 0
KSB1 222208Z 18014KT 18/M05 A2969 RMK A01 T01771051  RH  021%=      5-min Rain = 0
KSB1 222209Z 17014G21KT 18/M05 A2969 RMK A01 T01771051  RH  021%=      5-min Rain = 0
KSB1 222210Z 17018KT 18/M05 A2969 RMK A01 T01761051  RH  021%=      5-min Rain = 0
KSB1 222211Z 17015G20KT 18/M05 A2969 RMK A01 T01761051  RH  021%=      5-min Rain = 0
KSB1 222212Z 18015KT 18/M05 A2969 RMK A01 T01751051  RH  021%=      5-min Rain = 0
KSB1 222213Z 19014KT 18/M05 A2969 RMK A01 T01761051  RH  021%=      5-min Rain = 0
KSB1 222214Z 18011KT 18/M05 A2969 RMK A01 T01751051  RH  021%=      5-min Rain = 0
KSB1 222215Z 16011KT 18/M05 A2969 RMK A01 T01761051  RH  021%=      5-min Rain = 0
KSB1 222216Z 17010KT 18/M05 A2969 RMK A01 T01761051  RH  021%=      5-min Rain = 0
KSB1 222217Z 17013KT 18/M05 A2969 RMK A01 T01771050  RH  021%=      5-min Rain = 0
KSB1 222218Z 19012KT 18/M05 A2969 RMK A01 T01761051  RH  021%=      5-min Rain = 0
KSB1 222219Z 19008KT 18/M05 A2969 RMK A01 T01761051  RH  021%=      5-min Rain = 0
KSB1 222220Z 17006KT 18/M05 A2969 RMK A01 T01761051  RH  021%=      5-min Rain = 0
KSB1 222221Z 19009KT 18/M05 A2968 RMK A01 T01761051  RH  021%=      5-min Rain = 0
KSB1 222222Z 18008KT 18/M05 A2968 RMK A01 T01751051  RH  021%=      5-min Rain = 0
KSB1 222223Z 18009KT 18/M05 A2968 RMK A01 T01761051  RH  021%=      5-min Rain = 0
KSB1 222224Z 20011KT 18/M05 A2968 RMK A01 T01771051  RH  021%=      5-min Rain = 0
KSB1 222225Z 21010KT 18/M05 A2968 RMK A01 T01771051  RH  021%=      5-min Rain = 0
KSB1 222226Z 20012KT 18/M05 A2968 RMK A01 T01771052  RH  021%=      5-min Rain = 0
KSB1 222227Z 19015KT 18/M05 A2968 RMK A01 T01771052  RH  021%=      5-min Rain = 0
KSB1 222228Z 18012KT 18/M05 A2968 RMK A01 T01771052  RH  021%=      5-min Rain = 0
KSB1 222229Z 16012G18KT 18/M05 A2968 RMK A01 T01771052  RH  020%=      5-min Rain = 0
KSB1 222230Z 17019KT 18/M05 A2967 RMK A01 T01781052  RH  020%=      5-min Rain = 0
KSB1 222231Z 19016KT 18/M05 A2968 RMK A01 T01791053  RH  020%=      5-min Rain = 0
KSB1 222232Z 19015G20KT 18/M05 A2968 RMK A01 T01801053  RH  020%=      5-min Rain = 0
KSB1 222233Z 19014KT 18/M05 A2968 RMK A01 T01801053  RH  020%=      5-min Rain = 0
KSB1 222234Z 19016G21KT 18/M05 A2967 RMK A01 T01811053  RH  020%=      5-min Rain = 0
KSB1 222235Z 18019KT 18/M05 A2967 RMK A01 T01811053  RH  020%=      5-min Rain = 0
KSB1 222236Z 20022G32KT 18/M06 A2967 RMK A01 T01811056  RH  019%=      5-min Rain = 0
KSB1 222237Z 20014KT 18/M06 A2967 RMK A01 T01811064  RH  018%=      5-min Rain = 0
KSB1 222238Z 22014G19KT 18/M06 A2967 RMK A01 T01811063  RH  018%=      5-min Rain = 0
KSB1 222239Z 19014KT 18/M06 A2967 RMK A01 T01811061  RH  019%=      5-min Rain = 0
KSB1 222240Z 19014KT 18/M06 A2967 RMK A01 T01811058  RH  019%=      5-min Rain = 0
KSB1 222241Z 19015KT 18/M05 A2967 RMK A01 T01821054  RH  020%=      5-min Rain = 0
KSB1 222242Z 19013KT 18/M05 A2967 RMK A01 T01821054  RH  020%=      5-min Rain = 0
KSB1 222243Z 19013KT 18/M06 A2967 RMK A01 T01821055  RH  019%=      5-min Rain = 0
KSB1 222244Z 19014G19KT 18/M05 A2967 RMK A01 T01821054  RH  020%=      5-min Rain = 0
KSB1 222245Z 19015KT 18/M06 A2967 RMK A01 T01821055  RH  019%=      5-min Rain = 0
KSB1 222246Z 18012KT 18/M06 A2967 RMK A01 T01821057  RH  019%=      5-min Rain = 0
KSB1 222247Z 19013KT 18/M06 A2967 RMK A01 T01821060  RH  019%=      5-min Rain = 0
KSB1 222248Z 20015KT 18/M06 A2967 RMK A01 T01831056  RH  019%=      5-min Rain = 0
KSB1 222249Z 20014KT 18/M06 A2967 RMK A01 T01831057  RH  019%=      5-min Rain = 0
KSB1 222250Z 19012KT 18/M06 A2967 RMK A01 T01831057  RH  019%=      5-min Rain = 0
KSB1 222251Z 20010KT 18/M06 A2967 RMK A01 T01841056  RH  019%=      5-min Rain = 0
KSB1 222252Z 19012KT 18/M06 A2967 RMK A01 T01841055  RH  019%=      5-min Rain = 0
KSB1 222253Z 20012KT 18/M06 A2966 RMK A01 T01841056  RH  019%=      5-min Rain = 0
KSB1 222254Z 21011KT 19/M06 A2966 RMK A01 T01851056  RH  019%=      5-min Rain = 0
KSB1 222255Z 21009KT 19/M06 A2966 RMK A01 T01851056  RH  019%=      5-min Rain = 0
KSB1 222256Z 20010KT 19/M06 A2966 RMK A01 T01851055  RH  019%=      5-min Rain = 0
KSB1 222257Z 20010KT 19/M06 A2966 RMK A01 T01851055  RH  019%=      5-min Rain = 0
KSB1 222258Z 19011KT 19/M06 A2966 RMK A01 T01851055  RH  019%=      5-min Rain = 0
KSB1 222259Z 20009KT 19/M06 A2966 RMK A01 T01851056  RH  019%=      5-min Rain = 0
KSB1 222300Z 21009KT 19/M06 A2966 RMK A01 T01861055  RH  019%=      5-min Rain = 0
KSB1 222301Z 21011KT 19/M06 A2966 RMK A01 T01881055  RH  019%=      5-min Rain = 0
KSB1 222302Z 21009KT 19/M06 A2966 RMK A01 T01881056  RH  019%=      5-min Rain = 0
KSB1 222303Z 22008KT 19/M06 A2966 RMK A01 T01891055  RH  019%=      5-min Rain = 0
KSB1 222304Z 22008KT 19/M06 A2966 RMK A01 T01911056  RH  018%=      5-min Rain = 0
KSB1 222305Z 22009KT 19/M06 A2966 RMK A01 T01921058  RH  018%=      5-min Rain = 0
KSB1 222306Z 22008KT 19/M06 A2966 RMK A01 T01931059  RH  018%=      5-min Rain = 0
KSB1 222307Z 23008KT 20/M06 A2966 RMK A01 T01951060  RH  017%=      5-min Rain = 0
KSB1 222308Z 24009KT 20/M06 A2966 RMK A01 T01951060  RH  017%=      5-min Rain = 0
KSB1 222309Z 25009KT 20/M06 A2966 RMK A01 T01961060  RH  017%=      5-min Rain = 0
KSB1 222310Z 23009KT 20/M06 A2966 RMK A01 T01971060  RH  017%=      5-min Rain = 0
KSB1 222311Z 22007KT 20/M06 A2966 RMK A01 T01961060  RH  017%=      5-min Rain = 0
KSB1 222312Z 22007KT 20/M06 A2966 RMK A01 T01951059  RH  017%=      5-min Rain = 0
KSB1 222313Z 23007KT 19/M06 A2966 RMK A01 T01931060  RH  017%=      5-min Rain = 0
KSB1 222314Z 23006KT 19/M06 A2966 RMK A01 T01931060  RH  018%=      5-min Rain = 0
KSB1 222315Z 22005KT 19/M06 A2966 RMK A01 T01921060  RH  018%=      5-min Rain = 0
KSB1 222316Z 24008KT 19/M06 A2966 RMK A01 T01931062  RH  017%=      5-min Rain = 0
KSB1 222317Z 21009KT 19/M06 A2966 RMK A01 T01941064  RH  017%=      5-min Rain = 0
KSB1 222318Z 21012KT 20/M06 A2965 RMK A01 T01961064  RH  017%=      5-min Rain = 0
KSB1 222319Z 22015KT 20/M07 A2965 RMK A01 T01981070  RH  016%=      5-min Rain = 0
KSB1 222320Z 21012KT 20/M07 A2966 RMK A01 T01981073  RH  015%=      5-min Rain = 0
KSB1 222321Z 22011KT 20/M07 A2966 RMK A01 T01991072  RH  015%=      5-min Rain = 0
KSB1 222322Z 23010KT 20/M07 A2965 RMK A01 T02011070  RH  015%=      5-min Rain = 0
KSB1 222323Z 22011KT 20/M07 A2966 RMK A01 T02021071  RH  015%=      5-min Rain = 0
KSB1 222324Z 22013KT 20/M07 A2965 RMK A01 T02021074  RH  015%=      5-min Rain = 0
KSB1 222325Z 22012KT 20/M08 A2965 RMK A01 T02011075  RH  015%=      5-min Rain = 0
KSB1 222326Z 21014KT 20/M08 A2965 RMK A01 T02001076  RH  015%=      5-min Rain = 0
KSB1 222327Z 21015KT 20/M08 A2965 RMK A01 T01991077  RH  015%=      5-min Rain = 0
KSB1 222328Z 21013KT 20/M08 A2965 RMK A01 T01981078  RH  015%=      5-min Rain = 0
KSB1 222329Z 21012KT 20/M08 A2965 RMK A01 T01991077  RH  015%=      5-min Rain = 0
KSB1 222330Z 22011KT 20/M08 A2965 RMK A01 T01991078  RH  015%=      5-min Rain = 0
KSB1 222331Z 21009KT 20/M08 A2965 RMK A01 T01981078  RH  015%=      5-min Rain = 0
KSB1 222332Z 21009KT 20/M08 A2965 RMK A01 T01991077  RH  015%=      5-min Rain = 0
KSB1 222333Z 22008KT 20/M08 A2965 RMK A01 T02001077  RH  015%=      5-min Rain = 0
KSB1 222334Z 22011KT 20/M08 A2965 RMK A01 T02011078  RH  014%=      5-min Rain = 0
KSB1 222335Z 22010KT 20/M08 A2965 RMK A01 T02001081  RH  014%=      5-min Rain = 0
KSB1 222336Z 23011KT 20/M08 A2965 RMK A01 T02001080  RH  014%=      5-min Rain = 0
KSB1 222337Z 23011KT 20/M08 A2965 RMK A01 T02011078  RH  014%=      5-min Rain = 0
KSB1 222338Z 23016G23KT 20/M08 A2965 RMK A01 T02011083  RH  014%=      5-min Rain = 0
KSB1 222339Z 22018KT 20/M09 A2965 RMK A01 T02001089  RH  013%=      5-min Rain = 0
KSB1 222340Z 23017KT 20/M09 A2965 RMK A01 T01981091  RH  013%=      5-min Rain = 0
KSB1 222341Z 23017KT 20/M09 A2965 RMK A01 T01971091  RH  013%=      5-min Rain = 0
KSB1 222342Z 23017KT 20/M09 A2965 RMK A01 T01981092  RH  013%=      5-min Rain = 0
KSB1 222343Z 24014KT 20/M09 A2965 RMK A01 T01981093  RH  013%=      5-min Rain = 0
KSB1 222344Z 22013KT 20/M10 A2965 RMK A01 T01981095  RH  013%=      5-min Rain = 0
KSB1 222345Z 23012G18KT 20/M09 A2965 RMK A01 T01981094  RH  013%=      5-min Rain = 0
KSB1 222346Z 23015KT 20/M09 A2965 RMK A01 T01991094  RH  013%=      5-min Rain = 0
KSB1 222347Z 23014KT 20/M10 A2965 RMK A01 T01991095  RH  013%=      5-min Rain = 0
KSB1 222348Z 23017KT 20/M10 A2965 RMK A01 T01991098  RH  013%=      5-min Rain = 0
KSB1 222349Z 24015KT 20/M10 A2965 RMK A01 T01981100  RH  012%=      5-min Rain = 0
KSB1 222350Z 24017G23KT 20/M10 A2965 RMK A01 T01991101  RH  012%=      5-min Rain = 0
KSB1 222351Z 24021G26KT 20/M10 A2965 RMK A01 T01991103  RH  012%=      5-min Rain = 0
KSB1 222352Z 23022G27KT 20/M11 A2965 RMK A01 T01991105  RH  012%=      5-min Rain = 0
KSB1 222353Z 22018G23KT 20/M11 A2965 RMK A01 T02001108  RH  012%=      5-min Rain = 0
KSB1 222354Z 23019G28KT 20/M11 A2965 RMK A01 T02001109  RH  011%=      5-min Rain = 0
KSB1 222355Z 23021KT 20/M11 A2964 RMK A01 T02001110  RH  011%=      5-min Rain = 0
KSB1 222356Z 22021KT 20/M11 A2964 RMK A01 T02001109  RH  011%=      5-min Rain = 0
KSB1 222357Z 22021G26KT 20/M11 A2964 RMK A01 T02001109  RH  011%=      5-min Rain = 0
KSB1 222358Z 22024G29KT 20/M11 A2964 RMK A01 T02001110  RH  011%=      5-min Rain = 0
KSB1 222359Z 23022G28KT 20/M11 A2964 RMK A01 T02001111  RH  011%=      5-min Rain = 0
KSB1 230000Z 23026G31KT 20/M11 A2964 RMK A01 T02001112  RH  011%=      5-min Rain = 0
KSB1 230001Z 23026KT 20/M11 A2964 RMK A01 T02001113  RH  011%=      5-min Rain = 0
KSB1 230002Z 23026KT 20/M11 A2964 RMK A01 T01991114  RH  011%=      5-min Rain = 0
KSB1 230003Z 22021G26KT 20/M12 A2964 RMK A01 T01981116  RH  011%=      5-min Rain = 0
KSB1 230004Z 22018KT 20/M12 A2964 RMK A01 T01981115  RH  011%=      5-min Rain = 0
KSB1 230005Z 22017KT 20/M11 A2964 RMK A01 T01981113  RH  011%=      5-min Rain = 0
KSB1 230006Z 22020KT 20/M11 A2964 RMK A01 T01981112  RH  011%=      5-min Rain = 0
KSB1 230007Z 23020KT 20/M11 A2965 RMK A01 T01971113  RH  011%=      5-min Rain = 0
KSB1 230008Z 22019KT 20/M11 A2965 RMK A01 T01971113  RH  011%=      5-min Rain = 0
KSB1 230009Z 22016G21KT 20/M11 A2965 RMK A01 T01971113  RH  011%=      5-min Rain = 0
KSB1 230010Z 23014KT 20/M11 A2965 RMK A01 T01971113  RH  011%=      5-min Rain = 0
KSB1 230011Z 22015G25KT 20/M11 A2965 RMK A01 T01961113  RH  011%=      5-min Rain = 0
KSB1 230012Z 22023KT 20/M11 A2964 RMK A01 T01961114  RH  011%=      5-min Rain = 0
KSB1 230013Z 22022G27KT 20/M12 A2964 RMK A01 T01961115  RH  011%=      5-min Rain = 0
KSB1 230014Z 22019KT 20/M12 A2964 RMK A01 T01961116  RH  011%=      5-min Rain = 0
KSB1 230015Z 22017KT 20/M12 A2965 RMK A01 T01951115  RH  011%=      5-min Rain = 0
KSB1 230016Z 22021KT 20/M11 A2964 RMK A01 T01951113  RH  011%=      5-min Rain = 0
KSB1 230017Z 23019KT 19/M11 A2964 RMK A01 T01941113  RH  011%=      5-min Rain = 0
KSB1 230018Z 23018G23KT 20/M11 A2964 RMK A01 T01951113  RH  011%=      5-min Rain = 0
KSB1 230019Z 23020KT 19/M11 A2964 RMK A01 T01941114  RH  011%=      5-min Rain = 0
KSB1 230020Z 23021KT 19/M12 A2964 RMK A01 T01931115  RH  011%=      5-min Rain = 0
KSB1 230021Z 23019KT 19/M12 A2964 RMK A01 T01931115  RH  011%=      5-min Rain = 0
KSB1 230022Z 23021KT 19/M12 A2964 RMK A01 T01921116  RH  011%=      5-min Rain = 0
KSB1 230023Z 23019G25KT 19/M12 A2964 RMK A01 T01921116  RH  011%=      5-min Rain = 0
KSB1 230024Z 23023KT 19/M12 A2964 RMK A01 T01921119  RH  011%=      5-min Rain = 0
KSB1 230025Z 23020KT 19/M12 A2964 RMK A01 T01911121  RH  011%=      5-min Rain = 0
KSB1 230026Z 23019G25KT 19/M12 A2964 RMK A01 T01901122  RH  011%=      5-min Rain = 0
KSB1 230027Z 23021G26KT 19/M12 A2964 RMK A01 T01901123  RH  011%=      5-min Rain = 0
KSB1 230028Z 23021KT 19/M12 A2964 RMK A01 T01901124  RH  011%=      5-min Rain = 0
KSB1 230029Z 24020KT 19/M12 A2964 RMK A01 T01891124  RH  011%=      5-min Rain = 0
KSB1 230030Z 24019G24KT 19/M13 A2964 RMK A01 T01891125  RH  011%=      5-min Rain = 0
KSB1 230031Z 24022G27KT 19/M13 A2964 RMK A01 T01891125  RH  011%=      5-min Rain = 0
KSB1 230032Z 24020KT 19/M13 A2964 RMK A01 T01891126  RH  011%=      5-min Rain = 0
KSB1 230033Z 23016KT 19/M13 A2964 RMK A01 T01891126  RH  011%=      5-min Rain = 0
KSB1 230034Z 23020KT 19/M13 A2964 RMK A01 T01881125  RH  011%=      5-min Rain = 0
KSB1 230035Z 23024KT 19/M12 A2964 RMK A01 T01881124  RH  011%=      5-min Rain = 0
KSB1 230036Z 23021G29KT 19/M12 A2964 RMK A01 T01881123  RH  011%=      5-min Rain = 0
KSB1 230037Z 23017KT 19/M12 A2964 RMK A01 T01881123  RH  011%=      5-min Rain = 0
KSB1 230038Z 22018KT 19/M12 A2964 RMK A01 T01881122  RH  011%=      5-min Rain = 0
KSB1 230039Z 22020G26KT 19/M12 A2964 RMK A01 T01871121  RH  011%=      5-min Rain = 0
KSB1 230040Z 22023KT 19/M12 A2964 RMK A01 T01871120  RH  011%=      5-min Rain = 0
KSB1 230041Z 23019KT 19/M12 A2965 RMK A01 T01871119  RH  011%=      5-min Rain = 0
KSB1 230042Z 23017KT 19/M12 A2965 RMK A01 T01871119  RH  011%=      5-min Rain = 0
KSB1 230043Z 24022KT 19/M12 A2964 RMK A01 T01861119  RH  012%=      5-min Rain = 0
KSB1 230044Z 23019G25KT 19/M12 A2965 RMK A01 T01861118  RH  012%=      5-min Rain = 0
KSB1 230045Z 23022G30KT 19/M12 A2964 RMK A01 T01861119  RH  012%=      5-min Rain = 0
KSB1 230046Z 23029G36KT 19/M12 A2964 RMK A01 T01851121  RH  011%=      5-min Rain = 0
KSB1 230047Z 22027KT 19/M12 A2964 RMK A01 T01861122  RH  011%=      5-min Rain = 0
KSB1 230048Z 22022G27KT 19/M12 A2965 RMK A01 T01871121  RH  011%=      5-min Rain = 0
KSB1 230049Z 22020G25KT 19/M12 A2965 RMK A01 T01871120  RH  011%=      5-min Rain = 0
KSB1 230050Z 23022G29KT 19/M12 A2965 RMK A01 T01851120  RH  011%=      5-min Rain = 0
KSB1 230051Z 23027G33KT 19/M12 A2964 RMK A01 T01851119  RH  012%=      5-min Rain = 0
KSB1 230052Z 22024G30KT 19/M12 A2965 RMK A01 T01851118  RH  012%=      5-min Rain = 0
KSB1 230053Z 22022KT 19/M12 A2965 RMK A01 T01851117  RH  012%=      5-min Rain = 0
KSB1 230054Z 22026G31KT 19/M12 A2965 RMK A01 T01851116  RH  012%=      5-min Rain = 0
KSB1 230055Z 22022KT 19/M12 A2965 RMK A01 T01851116  RH  012%=      5-min Rain = 0
KSB1 230056Z 22024KT 18/M12 A2965 RMK A01 T01841116  RH  012%=      5-min Rain = 0
KSB1 230057Z 22021G26KT 18/M12 A2965 RMK A01 T01841116  RH  012%=      5-min Rain = 0
KSB1 230058Z 22019KT 18/M12 A2965 RMK A01 T01841116  RH  012%=      5-min Rain = 0
KSB1 230059Z 23020G26KT 18/M12 A2966 RMK A01 T01831116  RH  012%=      5-min Rain = 0
KSB1 230100Z 22021G29KT 18/M12 A2966 RMK A01 T01831115  RH  012%=      5-min Rain = 0
KSB1 230101Z 23025G31KT 18/M11 A2965 RMK A01 T01831114  RH  012%=      5-min Rain = 0
KSB1 230102Z 23026G32KT 18/M11 A2965 RMK A01 T01831114  RH  012%=      5-min Rain = 0
KSB1 230103Z 23023G29KT 18/M11 A2966 RMK A01 T01831114  RH  012%=      5-min Rain = 0
KSB1 230104Z 23027G34KT 18/M12 A2965 RMK A01 T01831119  RH  012%=      5-min Rain = 0
KSB1 230105Z 21028G36KT 18/M13 A2965 RMK A01 T01831133  RH  010%=      5-min Rain = 0
KSB1 230106Z 22029G35KT 18/M13 A2965 RMK A01 T01841134  RH  010%=      5-min Rain = 0
KSB1 230107Z 23028G37KT 18/M14 A2965 RMK A01 T01841136  RH  010%=      5-min Rain = 0
KSB1 230108Z 23035G41KT 18/M14 A2964 RMK A01 T01841138  RH  010%=      5-min Rain = 0
KSB1 230109Z 23040G45KT 18/M14 A2963 RMK A01 T01841141  RH  010%=      5-min Rain = 0
KSB1 230110Z 22036G43KT 18/M14 A2964 RMK A01 T01841142  RH  010%=      5-min Rain = 0
KSB1 230111Z 22036G42KT 18/M14 A2964 RMK A01 T01841137  RH  010%=      5-min Rain = 0
KSB1 230112Z 22031G36KT 18/M13 A2965 RMK A01 T01831133  RH  010%=      5-min Rain = 0
KSB1 230113Z 23029G39KT 18/M13 A2965 RMK A01 T01831133  RH  010%=      5-min Rain = 0
KSB1 230114Z 23029KT 18/M13 A2966 RMK A01 T01821134  RH  010%=      5-min Rain = 0
KSB1 230115Z 24027G32KT 18/M14 A2966 RMK A01 T01811135  RH  010%=      5-min Rain = 0
KSB1 230116Z 23027G46KT 18/M13 A2966 RMK A01 T01801134  RH  011%=      5-min Rain = 0
KSB1 230117Z 22036G44KT 18/M13 A2965 RMK A01 T01801132  RH  011%=      5-min Rain = 0
KSB1 230118Z 23039G46KT 18/M13 A2964 RMK A01 T01791132  RH  011%=      5-min Rain = 0
KSB1 230119Z 23032G39KT 18/M13 A2965 RMK A01 T01801132  RH  011%=      5-min Rain = 0
KSB1 230120Z 23031G39KT 18/M13 A2966 RMK A01 T01801131  RH  011%=      5-min Rain = 0
KSB1 230121Z 23031G39KT 18/M13 A2966 RMK A01 T01791131  RH  011%=      5-min Rain = 0
KSB1 230122Z 23024G30KT 18/M13 A2968 RMK A01 T01791130  RH  011%=      5-min Rain = 0
KSB1 230123Z 25024KT 18/M13 A2968 RMK A01 T01781130  RH  011%=      5-min Rain = 0
KSB1 230124Z 28030G37KT 18/M12 A297 RMK A01 T01771124  RH  012%=      5-min Rain = 0
KSB1 230125Z 30027G33KT 16/M04 A2971 RMK A01 T01561044  RH  025%=      5-min Rain = 0
KSB1 230126Z 31036G46KT 12/M02 A297 RMK A01 T01241024  RH  036%=      5-min Rain = 0
KSB1 230127Z 31040G50KT 11/M02 A297 RMK A01 T01071018  RH  042%=      5-min Rain = 0
KSB1 230128Z 30035G41KT 10/M01 A2971 RMK A01 T00991014  RH  045%=      5-min Rain = 0
KSB1 230129Z 30034G43KT 10/M01 A2971 RMK A01 T00951012  RH  047%=      5-min Rain = 0
KSB1 230130Z 30029G36KT 09/M01 A2972 RMK A01 T00921011  RH  049%=      5-min Rain = 0
KSB1 230131Z 30031G39KT 09/M01 A2972 RMK A01 T00891010  RH  050%=      5-min Rain = 0
KSB1 230132Z 30034G41KT 09/M01 A2973 RMK A01 T00851010  RH  051%=      5-min Rain = 0
KSB1 230133Z 31033G39KT 08/M01 A2973 RMK A01 T00821009  RH  053%=      5-min Rain = 0
KSB1 230134Z 30032G41KT 08/M01 A2973 RMK A01 T00801008  RH  053%=      5-min Rain = 0
KSB1 230135Z 30031G40KT 08/M01 A2973 RMK A01 T00791008  RH  054%=      5-min Rain = 0
KSB1 230136Z 31035G44KT 08/M01 A2973 RMK A01 T00771008  RH  055%=      5-min Rain = 0
KSB1 230137Z 31034G41KT 08/M01 A2973 RMK A01 T00761008  RH  055%=      5-min Rain = 0
KSB1 230138Z 31036G42KT 08/M01 A2973 RMK A01 T00751008  RH  056%=      5-min Rain = 0
KSB1 230139Z 31031G39KT 07/M01 A2974 RMK A01 T00741007  RH  056%=      5-min Rain = 0
KSB1 230140Z 31036G43KT 07/M01 A2974 RMK A01 T00741007  RH  056%=      5-min Rain = 0
KSB1 230141Z 31039G49KT 07/M01 A2974 RMK A01 T00711007  RH  057%=      5-min Rain = 0
KSB1 230142Z 31036G44KT 07/M01 A2974 RMK A01 T00691007  RH  058%=      5-min Rain = 0
KSB1 230143Z 31032G41KT 07/M01 A2975 RMK A01 T00681007  RH  059%=      5-min Rain = 0
KSB1 230144Z 31035G43KT 07/M01 A2975 RMK A01 T00671007  RH  059%=      5-min Rain = 0
KSB1 230145Z 31034G42KT 07/M01 A2975 RMK A01 T00651007  RH  060%=      5-min Rain = 0
KSB1 230146Z 31038G48KT 06/M01 A2975 RMK A01 T00641007  RH  061%=      5-min Rain = 0
KSB1 230147Z 31040G47KT 06/M01 A2975 RMK A01 T00631007  RH  061%=      5-min Rain = 0
KSB1 230148Z 31034KT 06/M01 A2976 RMK A01 T00621006  RH  062%=      5-min Rain = 0
KSB1 230149Z 30028G33KT 06/M01 A2976 RMK A01 T00621006  RH  062%=      5-min Rain = 0
KSB1 230150Z 31029G35KT 06/M01 A2976 RMK A01 T00621006  RH  062%=      5-min Rain = 0
KSB1 230151Z 31037G45KT 06/M01 A2975 RMK A01 T00611007  RH  062%=      5-min Rain = 0
KSB1 230152Z 31036G41KT 06/M01 A2975 RMK A01 T00601008  RH  062%=      5-min Rain = 0
KSB1 230153Z 31035G42KT 06/M01 A2975 RMK A01 T00581008  RH  062%=      5-min Rain = 0
KSB1 230154Z 31036G44KT 06/M01 A2975 RMK A01 T00571008  RH  063%=      5-min Rain = 0
KSB1 230155Z 31039G48KT 06/M01 A2975 RMK A01 T00561009  RH  063%=      5-min Rain = 0
KSB1 230156Z 31038G47KT 06/M01 A2976 RMK A01 T00561009  RH  063%=      5-min Rain = 0
KSB1 230157Z 31038KT 06/M01 A2976 RMK A01 T00551009  RH  064%=      5-min Rain = 0
KSB1 230158Z 31038G45KT 06/M01 A2976 RMK A01 T00551009  RH  064%=      5-min Rain = 0
KSB1 230159Z 31038G47KT 06/M01 A2976 RMK A01 T00551009  RH  063%=      5-min Rain = 0
KSB1 230200Z 30035G43KT 06/M01 A2976 RMK A01 T00551009  RH  063%=      5-min Rain = 0
KSB1 230201Z 30039G45KT 05/M01 A2976 RMK A01 T00541010  RH  063%=      5-min Rain = 0
KSB1 230202Z 30035G49KT 05/M01 A2976 RMK A01 T00541010  RH  063%=      5-min Rain = 0
KSB1 230203Z 30035G44KT 05/M01 A2976 RMK A01 T00541011  RH  063%=      5-min Rain = 0
KSB1 230204Z 30033G45KT 05/M01 A2977 RMK A01 T00531011  RH  063%=      5-min Rain = 0
KSB1 230205Z 31032G42KT 05/M01 A2977 RMK A01 T00541011  RH  063%=      5-min Rain = 0
KSB1 230206Z 30029G35KT 05/M01 A2977 RMK A01 T00531011  RH  063%=      5-min Rain = 0
KSB1 230207Z 30030G39KT 05/M01 A2977 RMK A01 T00521011  RH  063%=      5-min Rain = 0
KSB1 230208Z 31034G42KT 05/M01 A2977 RMK A01 T00511013  RH  063%=      5-min Rain = 0
KSB1 230209Z 31032G43KT 05/M01 A2977 RMK A01 T00491013  RH  064%=      5-min Rain = 0
KSB1 230210Z 31033G40KT 05/M01 A2977 RMK A01 T00481013  RH  064%=      5-min Rain = 0
KSB1 230211Z 31037G42KT 05/M01 A2977 RMK A01 T00481013  RH  065%=      5-min Rain = 0
KSB1 230212Z 31031G37KT 05/M01 A2977 RMK A01 T00471013  RH  065%=      5-min Rain = 0
KSB1 230213Z 30031G36KT 05/M01 A2978 RMK A01 T00481013  RH  065%=      5-min Rain = 0
KSB1 230214Z 30028G36KT 05/M01 A2978 RMK A01 T00481013  RH  065%=      5-min Rain = 0
KSB1 230215Z 30028G37KT 05/M01 A2978 RMK A01 T00481013  RH  065%=      5-min Rain = 0
KSB1 230216Z 30034G43KT 05/M01 A2978 RMK A01 T00471014  RH  065%=      5-min Rain = 0
KSB1 230217Z 30032G42KT 05/M01 A2978 RMK A01 T00471014  RH  065%=      5-min Rain = 0
KSB1 230218Z 30035G43KT 05/M01 A2978 RMK A01 T00461014  RH  065%=      5-min Rain = 0
KSB1 230219Z 30031G40KT 05/M01 A2979 RMK A01 T00461014  RH  065%=      5-min Rain = 0
KSB1 230220Z 30026G31KT 05/M01 A2979 RMK A01 T00461014  RH  065%=      5-min Rain = 0
KSB1 230221Z 31040KT 05/M01 A2979 RMK A01 T00451014  RH  065%=      5-min Rain = 0
KSB1 230222Z 31035G47KT 04/M02 A2979 RMK A01 T00441015  RH  065%=      5-min Rain = 0
KSB1 230223Z 30036G45KT 04/M02 A2978 RMK A01 T00441016  RH  065%=      5-min Rain = 0
KSB1 230224Z 31041G51KT 04/M02 A2979 RMK A01 T00431017  RH  065%=      5-min Rain = 0
KSB1 230225Z 30033G40KT 04/M02 A2979 RMK A01 T00421019  RH  065%=      5-min Rain = 0
KSB1 230226Z 30036G45KT 04/M02 A298 RMK A01 T00411019  RH  065%=      5-min Rain = 0
KSB1 230227Z 30032G41KT 04/M02 A298 RMK A01 T00411019  RH  065%=      5-min Rain = 0
KSB1 230228Z 29031G42KT 04/M02 A298 RMK A01 T00411019  RH  065%=      5-min Rain = 0
KSB1 230229Z 30038G47KT 04/M02 A2979 RMK A01 T00411020  RH  065%=      5-min Rain = 0
KSB1 230230Z 31034G48KT 04/M02 A2979 RMK A01 T00411020  RH  064%=      5-min Rain = 0
KSB1 230231Z 30030G40KT 04/M02 A2981 RMK A01 T00411020  RH  064%=      5-min Rain = 0
KSB1 230232Z 30032G43KT 04/M02 A2981 RMK A01 T00411021  RH  064%=      5-min Rain = 0
KSB1 230233Z 29024G34KT 04/M02 A2982 RMK A01 T00411021  RH  064%=      5-min Rain = 0
KSB1 230234Z 29032G46KT 04/M02 A2982 RMK A01 T00411021  RH  064%=      5-min Rain = 0
KSB1 230235Z 29029G37KT 04/M02 A2982 RMK A01 T00411021  RH  064%=      5-min Rain = 0
KSB1 230236Z 29030G38KT 04/M02 A2982 RMK A01 T00411021  RH  064%=      5-min Rain = 0
KSB1 230237Z 30029G37KT 04/M02 A2982 RMK A01 T00411021  RH  064%=      5-min Rain = 0
KSB1 230238Z 30029G37KT 04/M02 A2982 RMK A01 T00411021  RH  064%=      5-min Rain = 0
KSB1 230239Z 31032G40KT 04/M02 A2981 RMK A01 T00411021  RH  064%=      5-min Rain = 0
KSB1 230240Z 30032G42KT 04/M02 A2981 RMK A01 T00411021  RH  064%=      5-min Rain = 0
KSB1 230241Z 30030G37KT 04/M02 A2981 RMK A01 T00411021  RH  064%=      5-min Rain = 0
KSB1 230242Z 30030G38KT 04/M02 A2981 RMK A01 T00411021  RH  064%=      5-min Rain = 0
KSB1 230243Z 29028G34KT 04/M02 A2982 RMK A01 T00411021  RH  064%=      5-min Rain = 0
KSB1 230244Z 30026G34KT 04/M02 A2982 RMK A01 T00411021  RH  064%=      5-min Rain = 0
KSB1 230245Z 30034G43KT 04/M02 A2981 RMK A01 T00411021  RH  064%=      5-min Rain = 0
KSB1 230246Z 30034G39KT 04/M02 A2981 RMK A01 T00401021  RH  064%=      5-min Rain = 0
KSB1 230247Z 30033G43KT 04/M02 A2981 RMK A01 T00401021  RH  065%=      5-min Rain = 0
KSB1 230248Z 31034G45KT 04/M02 A2981 RMK A01 T00401021  RH  065%=      5-min Rain = 0
KSB1 230249Z 31033G40KT 04/M02 A2981 RMK A01 T00401021  RH  065%=      5-min Rain = 0
KSB1 230250Z 31032G37KT 04/M02 A2981 RMK A01 T00401021  RH  065%=      5-min Rain = 0
KSB1 230251Z 31033G44KT 04/M02 A2982 RMK A01 T00401021  RH  065%=      5-min Rain = 0
KSB1 230252Z 31034G42KT 04/M02 A2982 RMK A01 T00391020  RH  065%=      5-min Rain = 0
KSB1 230253Z 31034G45KT 04/M02 A2982 RMK A01 T00391020  RH  066%=      5-min Rain = 0
KSB1 230254Z 31032G39KT 04/M02 A2982 RMK A01 T00381020  RH  066%=      5-min Rain = 0
KSB1 230255Z 30032G39KT 04/M02 A2983 RMK A01 T00381020  RH  066%=      5-min Rain = 0
KSB1 230256Z 31030G41KT 04/M02 A2982 RMK A01 T00381020  RH  066%=      5-min Rain = 0
KSB1 230257Z 30037G45KT 04/M02 A2982 RMK A01 T00371020  RH  066%=      5-min Rain = 0
KSB1 230258Z 30031KT 04/M02 A2983 RMK A01 T00371020  RH  066%=      5-min Rain = 0
KSB1 230259Z 30031G40KT 04/M02 A2983 RMK A01 T00371020  RH  066%=      5-min Rain = 0
KSB1 230300Z 30030G36KT 04/M02 A2983 RMK A01 T00361020  RH  066%=      5-min Rain = 0
KSB1 230301Z 30028G34KT 04/M02 A2984 RMK A01 T00361021  RH  066%=      5-min Rain = 0
KSB1 230302Z 30027G32KT 04/M02 A2984 RMK A01 T00361021  RH  066%=      5-min Rain = 0
KSB1 230303Z 29024G30KT 04/M02 A2984 RMK A01 T00361021  RH  066%=      5-min Rain = 0
KSB1 230304Z 30027G35KT 04/M02 A2984 RMK A01 T00361021  RH  066%=      5-min Rain = 0
KSB1 230305Z 30027G37KT 04/M02 A2984 RMK A01 T00361021  RH  066%=      5-min Rain = 0
KSB1 230306Z 30032G38KT 04/M02 A2983 RMK A01 T00351021  RH  067%=      5-min Rain = 0
KSB1 230307Z 30034G42KT 04/M02 A2983 RMK A01 T00351020  RH  067%=      5-min Rain = 0
KSB1 230308Z 30033G42KT 04/M02 A2983 RMK A01 T00351020  RH  067%=      5-min Rain = 0
KSB1 230309Z 30036G42KT 04/M02 A2984 RMK A01 T00351020  RH  067%=      5-min Rain = 0
KSB1 230310Z 30032G44KT 03/M02 A2984 RMK A01 T00341019  RH  068%=      5-min Rain = 0
KSB1 230311Z 30034G42KT 03/M02 A2984 RMK A01 T00341019  RH  068%=      5-min Rain = 0
KSB1 230312Z 30033G41KT 03/M02 A2985 RMK A01 T00331020  RH  068%=      5-min Rain = 0
KSB1 230313Z 29029G37KT 03/M02 A2985 RMK A01 T00331019  RH  069%=      5-min Rain = 0
KSB1 230314Z 29030G41KT 03/M02 A2985 RMK A01 T00321020  RH  069%=      5-min Rain = 0
KSB1 230315Z 29025G33KT 03/M02 A2986 RMK A01 T00321020  RH  069%=      5-min Rain = 0
KSB1 230316Z 29028G33KT 03/M02 A2986 RMK A01 T00311020  RH  069%=      5-min Rain = 0
KSB1 230317Z 29026G36KT 03/M02 A2986 RMK A01 T00311020  RH  069%=      5-min Rain = 0
KSB1 230318Z 29025KT 03/M02 A2986 RMK A01 T00311019  RH  070%=      5-min Rain = 0
KSB1 230319Z 30033G45KT 03/M02 A2985 RMK A01 T00311019  RH  070%=      5-min Rain = 0
KSB1 230320Z 30036G45KT 03/M02 A2985 RMK A01 T00301019  RH  071%=      5-min Rain = 0
KSB1 230321Z 30038G47KT 03/M02 A2985 RMK A01 T00281018  RH  071%=      5-min Rain = 0
KSB1 230322Z 30036G44KT 03/M02 A2986 RMK A01 T00271017  RH  073%=      5-min Rain = 0
KSB1 230323Z 30034G43KT 03/M02 A2986 RMK A01 T00261017  RH  073%=      5-min Rain = 0
KSB1 230324Z 30034G43KT 03/M02 A2986 RMK A01 T00251016  RH  074%=      5-min Rain = 0
KSB1 230325Z 29029G35KT 03/M02 A2986 RMK A01 T00251015  RH  075%=      5-min Rain = 0
KSB1 230326Z 30030G39KT 03/M02 A2986 RMK A01 T00251015  RH  075%=      5-min Rain = 0
KSB1 230327Z 29028G36KT 03/M02 A2986 RMK A01 T00251016  RH  075%=      5-min Rain = 0
KSB1 230328Z 30028G39KT 03/M02 A2986 RMK A01 T00251015  RH  075%=      5-min Rain = 0
KSB1 230329Z 30035G44KT 02/M02 A2986 RMK A01 T00241015  RH  075%=      5-min Rain = 0
KSB1 230330Z 30031G37KT 02/M02 A2986 RMK A01 T00241015  RH  075%=      5-min Rain = 0
KSB1 230331Z 30031G37KT 02/M02 A2986 RMK A01 T00241016  RH  075%=      5-min Rain = 0
KSB1 230332Z 30032G40KT 02/M02 A2986 RMK A01 T00241016  RH  075%=      5-min Rain = 0
KSB1 230333Z 29032G38KT 02/M02 A2987 RMK A01 T00241016  RH  075%=      5-min Rain = 0
KSB1 230334Z 30031G38KT 02/M02 A2987 RMK A01 T00241016  RH  075%=      5-min Rain = 0
KSB1 230335Z 30031G40KT 02/M02 A2987 RMK A01 T00241017  RH  074%=      5-min Rain = 0
KSB1 230336Z 30026G31KT 02/M02 A2988 RMK A01 T00241017  RH  074%=      5-min Rain = 0
KSB1 230337Z 30030G39KT 03/M02 A2988 RMK A01 T00251017  RH  074%=      5-min Rain = 0
KSB1 230338Z 30023G29KT 02/M02 A2988 RMK A01 T00241018  RH  074%=      5-min Rain = 0
KSB1 230339Z 30027G35KT 03/M02 A2989 RMK A01 T00251018  RH  074%=      5-min Rain = 0
KSB1 230340Z 30030G40KT 02/M02 A2988 RMK A01 T00241018  RH  073%=      5-min Rain = 0
KSB1 230341Z 30024G32KT 02/M02 A2989 RMK A01 T00241018  RH  074%=      5-min Rain = 0
KSB1 230342Z 29026G33KT 02/M02 A2989 RMK A01 T00221018  RH  075%=      5-min Rain = 0
KSB1 230343Z 29024G29KT 02/M02 A2989 RMK A01 T00211016  RH  076%=      5-min Rain = 0
KSB1 230344Z 29028G37KT 02/M02 A2988 RMK A01 T00211015  RH  077%=      5-min Rain = 0
KSB1 230345Z 30027G36KT 02/M01 A2988 RMK A01 T00211014  RH  077%=      5-min Rain = 0
KSB1 230346Z 30027G37KT 02/M01 A2988 RMK A01 T00211014  RH  078%=      5-min Rain = 0
KSB1 230347Z 30024G31KT 02/M01 A2988 RMK A01 T00201013  RH  079%=      5-min Rain = 0
KSB1 230348Z 29021G30KT 02/M01 A2988 RMK A01 T00191011  RH  080%=      5-min Rain = 0
KSB1 230349Z 29026G32KT 02/M01 A2988 RMK A01 T00191011  RH  080%=      5-min Rain = 0
KSB1 230350Z 29030G38KT 02/M01 A2987 RMK A01 T00191012  RH  080%=      5-min Rain = 0
KSB1 230351Z 29024G29KT 02/M01 A2988 RMK A01 T00191011  RH  081%=      5-min Rain = 0
KSB1 230352Z 29026G33KT 02/M01 A2987 RMK A01 T00181010  RH  082%=      5-min Rain = 0
KSB1 230353Z 30036G43KT 02/M01 A2986 RMK A01 T00171010  RH  082%=      5-min Rain = 0
KSB1 230354Z 29033G42KT 02/M01 A2986 RMK A01 T00161011  RH  082%=      5-min Rain = 0
KSB1 230355Z 29033G40KT 02/M01 A2986 RMK A01 T00151010  RH  083%=      5-min Rain = 0
KSB1 230356Z 29030G40KT 01/M01 A2987 RMK A01 T00141010  RH  084%=      5-min Rain = 0
KSB1 230357Z 29030G36KT 01/M01 A2988 RMK A01 T00141010  RH  084%=      5-min Rain = 0
KSB1 230358Z 29026G32KT 01/M01 A2988 RMK A01 T00141009  RH  085%=      5-min Rain = 0
KSB1 230359Z 29025G33KT 01/M01 A2988 RMK A01 T00131008  RH  086%=      5-min Rain = 0
KSB1 230400Z 29025G32KT 01/M01 A2988 RMK A01 T00131007  RH  087%=      5-min Rain = 0
KSB1 230401Z 29024G32KT 01/M01 A2988 RMK A01 T00111007  RH  088%=      5-min Rain = 0
KSB1 230402Z 29027G32KT 01/M01 A2989 RMK A01 T00111007  RH  088%=      5-min Rain = 0
KSB1 230403Z 29026KT 01/M01 A2989 RMK A01 T00101007  RH  088%=      5-min Rain = 0
KSB1 230404Z 29025KT 01/M01 A2989 RMK A01 T00101007  RH  089%=      5-min Rain = 0
KSB1 230405Z 29029G37KT 01/M01 A2989 RMK A01 T00091006  RH  089%=      5-min Rain = 0
KSB1 230406Z 28025G32KT 01/M01 A2989 RMK A01 T00101006  RH  089%=      5-min Rain = 0
KSB1 230407Z 29025G32KT 01/M01 A2989 RMK A01 T00101006  RH  089%=      5-min Rain = 0
KSB1 230408Z 29026G31KT 01/M01 A299 RMK A01 T00091007  RH  089%=      5-min Rain = 0
KSB1 230409Z 29025G32KT 01/M01 A299 RMK A01 T00091007  RH  089%=      5-min Rain = 0
KSB1 230410Z 29028G34KT 01/M01 A2991 RMK A01 T00091007  RH  089%=      5-min Rain = 0
KSB1 230411Z 29028G35KT 01/M01 A2991 RMK A01 T00091007  RH  089%=      5-min Rain = 0
KSB1 230412Z 29031G39KT 01/M01 A2991 RMK A01 T00091007  RH  089%=      5-min Rain = 0
KSB1 230413Z 28027G34KT 01/M01 A2992 RMK A01 T00081008  RH  089%=      5-min Rain = 0
KSB1 230414Z 28027G34KT 01/M01 A2992 RMK A01 T00081009  RH  089%=      5-min Rain = 0
KSB1 230415Z 28025G32KT 01/M01 A2993 RMK A01 T00081009  RH  089%=      5-min Rain = 0
KSB1 230416Z 28025G35KT 01/M01 A2993 RMK A01 T00071009  RH  089%=      5-min Rain = 0
KSB1 230417Z 28025G30KT 01/M01 A2993 RMK A01 T00071009  RH  089%=      5-min Rain = 0
KSB1 230418Z 28023G30KT 01/M01 A2994 RMK A01 T00071009  RH  089%=      5-min Rain = 0
KSB1 230419Z 28026G34KT 01/M01 A2994 RMK A01 T00061008  RH  090%=      5-min Rain = 0
KSB1 230420Z 28024KT 01/M01 A2994 RMK A01 T00061008  RH  090%=      5-min Rain = 0
KSB1 230421Z 28021G28KT 01/M01 A2994 RMK A01 T00051008  RH  091%=      5-min Rain = 0
KSB1 230422Z 28021G29KT 01/M01 A2994 RMK A01 T00051007  RH  092%=      5-min Rain = 0
KSB1 230423Z 29020G27KT 01/M01 A2994 RMK A01 T00051007  RH  092%=      5-min Rain = 0
KSB1 230424Z 28019KT 00/M01 A2994 RMK A01 T00041007  RH  092%=      5-min Rain = 0
KSB1 230425Z 29020G27KT 00/M01 A2994 RMK A01 T00041007  RH  093%=      5-min Rain = 0
KSB1 230426Z 29018G23KT 00/M01 A2994 RMK A01 T00041006  RH  093%=      5-min Rain = 0
KSB1 230427Z 28020G25KT 00/M01 A2994 RMK A01 T00041006  RH  093%=      5-min Rain = 0
KSB1 230428Z 28018KT 00/M01 A2994 RMK A01 T00041006  RH  094%=      5-min Rain = 0
KSB1 230429Z 28019G26KT 00/M01 A2994 RMK A01 T00031006  RH  094%=      5-min Rain = 0
KSB1 230430Z 29017G22KT 00/M01 A2995 RMK A01 T00031006  RH  094%=      5-min Rain = 0
KSB1 230431Z 29019G26KT 00/M01 A2995 RMK A01 T00021006  RH  095%=      5-min Rain = 0
KSB1 230432Z 28019G24KT 00/M01 A2995 RMK A01 T00021006  RH  095%=      5-min Rain = 0
KSB1 230433Z 30018KT 00/M01 A2995 RMK A01 T00021006  RH  095%=      5-min Rain = 0
KSB1 230434Z 29022KT 00/M01 A2995 RMK A01 T00021005  RH  095%=      5-min Rain = 0
KSB1 230435Z 29018G24KT 00/M01 A2995 RMK A01 T00021005  RH  095%=      5-min Rain = 0
KSB1 230436Z 28019G24KT 00/M01 A2996 RMK A01 T00011005  RH  096%=      5-min Rain = 0
KSB1 230437Z 28019G24KT 00/M01 A2996 RMK A01 T00011005  RH  096%=      5-min Rain = 0
KSB1 230438Z 29021G28KT 00/M00 A2996 RMK A01 T00011004  RH  096%=      5-min Rain = 0
KSB1 230439Z 28020G25KT 00/M00 A2995 RMK A01 T00011004  RH  096%=      5-min Rain = 0
KSB1 230440Z 28021KT 00/M00 A2995 RMK A01 T00011004  RH  096%=      5-min Rain = 0
KSB1 230441Z 28022KT 00/M01 A2995 RMK A01 T00011005  RH  096%=      5-min Rain = 0
KSB1 230442Z 28018G23KT 00/M01 A2995 RMK A01 T00011005  RH  096%=      5-min Rain = 0
KSB1 230443Z 28022G30KT 00/M01 A2995 RMK A01 T00011005  RH  096%=      5-min Rain = 0
KSB1 230444Z 27025KT 00/M00 A2995 RMK A01 T00011004  RH  096%=      5-min Rain = 0
KSB1 230445Z 28022G27KT 00/M00 A2995 RMK A01 T00011004  RH  096%=      5-min Rain = 0
KSB1 230446Z 27024G29KT 00/M01 A2996 RMK A01 T00011005  RH  096%=      5-min Rain = 0
KSB1 230447Z 27023KT 00/M01 A2996 RMK A01 T00011005  RH  096%=      5-min Rain = 0
KSB1 230448Z 27025G32KT 00/M01 A2996 RMK A01 T00011005  RH  096%=      5-min Rain = 0
KSB1 230449Z 28024G29KT 00/M01 A2996 RMK A01 T00011005  RH  095%=      5-min Rain = 0
KSB1 230450Z 27024KT 00/M01 A2996 RMK A01 T00021005  RH  095%=      5-min Rain = 0
KSB1 230451Z 27021KT 00/M01 A2996 RMK A01 T00021006  RH  095%=      5-min Rain = 0
KSB1 230452Z 27019G26KT 00/M01 A2996 RMK A01 T00021006  RH  095%=      5-min Rain = 0
KSB1 230453Z 28020G27KT 00/M01 A2996 RMK A01 T00021006  RH  095%=      5-min Rain = 0
KSB1 230454Z 27022G27KT 00/M01 A2995 RMK A01 T00021006  RH  095%=      5-min Rain = 0
KSB1 230455Z 27021KT 00/M01 A2995 RMK A01 T00021006  RH  095%=      5-min Rain = 0
KSB1 230456Z 27021G27KT 00/M01 A2995 RMK A01 T00021006  RH  094%=      5-min Rain = 0
KSB1 230457Z 27022G28KT 00/M01 A2995 RMK A01 T00021007  RH  094%=      5-min Rain = 0
KSB1 230458Z 27021KT 00/M01 A2996 RMK A01 T00021007  RH  094%=      5-min Rain = 0
KSB1 230459Z 27022KT 00/M01 A2996 RMK A01 T00011007  RH  094%=      5-min Rain = 0
KSB1 230500Z 27022G29KT 00/M01 A2996 RMK A01 T00011008  RH  094%=      5-min Rain = 0
KSB1 230501Z 27020G26KT 00/M01 A2996 RMK A01 T00011007  RH  094%=      5-min Rain = 0
KSB1 230502Z 27023KT 00/M01 A2996 RMK A01 T00011007  RH  094%=      5-min Rain = 0
KSB1 230503Z 27021G26KT 00/M01 A2997 RMK A01 T00011007  RH  094%=      5-min Rain = 0
KSB1 230504Z 27021KT 00/M01 A2997 RMK A01 T00011007  RH  094%=      5-min Rain = 0
KSB1 230505Z 27022G27KT 00/M01 A2996 RMK A01 T00011007  RH  094%=      5-min Rain = 0
KSB1 230506Z 26019KT 00/M01 A2996 RMK A01 T00011007  RH  094%=      5-min Rain = 0
KSB1 230507Z 27018KT 00/M01 A2996 RMK A01 T00011007  RH  094%=      5-min Rain = 0
KSB1 230508Z 27018KT 00/M01 A2996 RMK A01 T00011007  RH  094%=      5-min Rain = 0
KSB1 230509Z 27019KT 00/M01 A2997 RMK A01 T00011007  RH  094%=      5-min Rain = 0
KSB1 230510Z 26025G30KT 00/M01 A2997 RMK A01 T00011007  RH  094%=      5-min Rain = 0
KSB1 230511Z 27021G26KT 00/M01 A2997 RMK A01 T00011007  RH  094%=      5-min Rain = 0
KSB1 230512Z 27017KT 00/M01 A2998 RMK A01 T00011007  RH  094%=      5-min Rain = 0
KSB1 230513Z 27020G26KT 00/M01 A2998 RMK A01 T00011007  RH  094%=      5-min Rain = 0
KSB1 230514Z 26022G27KT 00/M01 A2997 RMK A01 T00011007  RH  094%=      5-min Rain = 0
KSB1 230515Z 26022KT 00/M01 A2997 RMK A01 T00021007  RH  094%=      5-min Rain = 0
KSB1 230516Z 26018KT 00/M01 A2997 RMK A01 T00021008  RH  093%=      5-min Rain = 0
KSB1 230517Z 26015KT 00/M01 A2997 RMK A01 T00021008  RH  093%=      5-min Rain = 0
KSB1 230518Z 27016G21KT 00/M01 A2997 RMK A01 T00021007  RH  093%=      5-min Rain = 0
KSB1 230519Z 26020G26KT 00/M01 A2997 RMK A01 T00021007  RH  093%=      5-min Rain = 0
KSB1 230520Z 26018G27KT 00/M01 A2997 RMK A01 T00031008  RH  093%=      5-min Rain = 0
KSB1 230521Z 27015KT 00/M01 A2997 RMK A01 T00031008  RH  092%=      5-min Rain = 0
KSB1 230522Z 26016G22KT 00/M01 A2997 RMK A01 T00031008  RH  092%=      5-min Rain = 0
KSB1 230523Z 26016G21KT 00/M01 A2997 RMK A01 T00031008  RH  092%=      5-min Rain = 0
KSB1 230524Z 27018KT 00/M01 A2997 RMK A01 T00031009  RH  092%=      5-min Rain = 0
KSB1 230525Z 27018KT 00/M01 A2997 RMK A01 T00031009  RH  092%=      5-min Rain = 0
KSB1 230526Z 27016KT 00/M01 A2997 RMK A01 T00031009  RH  092%=      5-min Rain = 0
KSB1 230527Z 26018KT 00/M01 A2997 RMK A01 T00041009  RH  092%=      5-min Rain = 0
KSB1 230528Z 27016KT 00/M01 A2997 RMK A01 T00031009  RH  092%=      5-min Rain = 0
KSB1 230529Z 26015KT 00/M01 A2997 RMK A01 T00041008  RH  092%=      5-min Rain = 0
KSB1 230530Z 28016G21KT 00/M01 A2997 RMK A01 T00031008  RH  092%=      5-min Rain = 0
KSB1 230531Z 28017KT 00/M01 A2997 RMK A01 T00031008  RH  092%=      5-min Rain = 0
KSB1 230532Z 27017KT 00/M01 A2997 RMK A01 T00031008  RH  092%=      5-min Rain = 0
KSB1 230533Z 27015KT 00/M01 A2998 RMK A01 T00031008  RH  092%=      5-min Rain = 0
KSB1 230534Z 26014KT 00/M01 A2997 RMK A01 T00031008  RH  093%=      5-min Rain = 0
KSB1 230535Z 27014G21KT 00/M01 A2997 RMK A01 T00031007  RH  093%=      5-min Rain = 0
KSB1 230536Z 26017G22KT 00/M01 A2996 RMK A01 T00031007  RH  093%=      5-min Rain = 0
KSB1 230537Z 28016KT 00/M01 A2996 RMK A01 T00031007  RH  093%=      5-min Rain = 0
KSB1 230538Z 25013KT 00/M01 A2997 RMK A01 T00031008  RH  093%=      5-min Rain = 0
KSB1 230539Z 26013KT 00/M01 A2997 RMK A01 T00031008  RH  092%=      5-min Rain = 0
KSB1 230540Z 26012KT 00/M01 A2997 RMK A01 T00031008  RH  093%=      5-min Rain = 0
KSB1 230541Z 26013KT 00/M01 A2997 RMK A01 T00031007  RH  093%=      5-min Rain = 0
KSB1 230542Z 26013KT 00/M01 A2997 RMK A01 T00031007  RH  093%=      5-min Rain = 0
KSB1 230543Z 27011KT 00/M01 A2997 RMK A01 T00031007  RH  093%=      5-min Rain = 0
KSB1 230544Z 26011KT 00/M01 A2998 RMK A01 T00031007  RH  093%=      5-min Rain = 0
KSB1 230545Z 25009KT 00/M01 A2998 RMK A01 T00031007  RH  093%=      5-min Rain = 0
KSB1 230546Z 26012KT 00/M01 A2998 RMK A01 T00031007  RH  093%=      5-min Rain = 0
KSB1 230547Z 25014KT 00/M01 A2998 RMK A01 T00031007  RH  093%=      5-min Rain = 0
KSB1 230548Z 26014KT 00/M01 A2998 RMK A01 T00041008  RH  092%=      5-min Rain = 0
KSB1 230549Z 26012G19KT 00/M01 A2998 RMK A01 T00041008  RH  092%=      5-min Rain = 0
KSB1 230550Z 27017KT 00/M01 A2998 RMK A01 T00041008  RH  091%=      5-min Rain = 0
KSB1 230551Z 26013G18KT 01/M01 A2998 RMK A01 T00051008  RH  091%=      5-min Rain = 0
KSB1 230552Z 26015KT 01/M01 A2998 RMK A01 T00051008  RH  091%=      5-min Rain = 0
KSB1 230553Z 26014KT 01/M01 A2998 RMK A01 T00051008  RH  091%=      5-min Rain = 0
KSB1 230554Z 25015KT 01/M01 A2997 RMK A01 T00051008  RH  091%=      5-min Rain = 0
KSB1 230555Z 26015G22KT 01/M01 A2998 RMK A01 T00051008  RH  091%=      5-min Rain = 0
KSB1 230556Z 26012KT 01/M01 A2998 RMK A01 T00051008  RH  091%=      5-min Rain = 0
KSB1 230557Z 26014KT 01/M01 A2998 RMK A01 T00051007  RH  091%=      5-min Rain = 0
KSB1 230558Z 26015KT 01/M01 A2999 RMK A01 T00051007  RH  092%=      5-min Rain = 0
KSB1 230559Z 27017G25KT 01/M01 A2999 RMK A01 T00051007  RH  092%=      5-min Rain = 0

Page generated in 0.1887 seconds.